SVA375A OERK-GMMN
Flight info
| Callsign | SVA375A |
|---|---|
| Flight time | 7h 37m |
| Altitude | 30000 |
| Route | IVONU M321 HLF N316 RAGPU L677 CVO L617 SOBAX M872 METRU UP868 ARLOS P868 NIGAT/N0459F380 UP868 MON UV310 LOBNA UL874 DIMAO UZ888 ORSUP UA411 FES UR975 SADIC |
| Aircraft | A343/H-SDE2E3FGHIJ3J5M1P2RWXYZ/LB1D1 |
Departure
| Time | 2026-04-29 10:13 |
|---|---|
| Airport | King Khalid International Airport (OERK) |
Arrival
| Time | 2026-04-29 17:50 |
|---|---|
| Airport | Mohammed V International Airport (GMMN) |
| Time | Latitude | Longitude | Altitude | Speed | Heading |
|---|---|---|---|---|---|
| 2026-04-29 09:11 | 24.96049 | 46.70339 | 2043 ft | 0 kts | 307° |
| 2026-04-29 09:12 | 24.96106 | 46.70366 | 2039 ft | 0 kts | 298° |
| 2026-04-29 09:57 | 24.96104 | 46.70370 | 2034 ft | 3 kts | 297° |
| 2026-04-29 09:57 | 24.96094 | 46.70398 | 2037 ft | 4 kts | 283° |
| 2026-04-29 09:58 | 24.96089 | 46.70427 | 2034 ft | 4 kts | 276° |
| 2026-04-29 09:58 | 24.96085 | 46.70456 | 2035 ft | 4 kts | 293° |
| 2026-04-29 09:58 | 24.96073 | 46.70478 | 2040 ft | 4 kts | 326° |
| 2026-04-29 09:58 | 24.96059 | 46.70481 | 2042 ft | 4 kts | 55° |
| 2026-04-29 09:59 | 24.96045 | 46.70456 | 2041 ft | 4 kts | 52° |
| 2026-04-29 09:59 | 24.96039 | 46.70448 | 2043 ft | 4 kts | 40° |
| 2026-04-29 09:59 | 24.96052 | 46.70467 | 2040 ft | 1 kts | 60° |
| 2026-04-29 10:03 | 24.96057 | 46.70478 | 2043 ft | 3 kts | 60° |
| 2026-04-29 10:04 | 24.96079 | 46.70520 | 2037 ft | 9 kts | 59° |
| 2026-04-29 10:04 | 24.96139 | 46.70519 | 2040 ft | 12 kts | 335° |
| 2026-04-29 10:04 | 24.96231 | 46.70460 | 2041 ft | 18 kts | 329° |
| 2026-04-29 10:04 | 24.96359 | 46.70380 | 2042 ft | 24 kts | 330° |
| 2026-04-29 10:05 | 24.96518 | 46.70280 | 2041 ft | 27 kts | 330° |
| 2026-04-29 10:05 | 24.96675 | 46.70181 | 2041 ft | 25 kts | 330° |
| 2026-04-29 10:05 | 24.96816 | 46.70092 | 2039 ft | 22 kts | 330° |
| 2026-04-29 10:05 | 24.96837 | 46.69975 | 2042 ft | 18 kts | 236° |
| 2026-04-29 10:06 | 24.96769 | 46.69847 | 2038 ft | 20 kts | 240° |
| 2026-04-29 10:06 | 24.96703 | 46.69721 | 2042 ft | 19 kts | 240° |
| 2026-04-29 10:06 | 24.96638 | 46.69601 | 2042 ft | 18 kts | 240° |
| 2026-04-29 10:06 | 24.96558 | 46.69448 | 2042 ft | 26 kts | 240° |
| 2026-04-29 10:07 | 24.96464 | 46.69269 | 2041 ft | 27 kts | 240° |
| 2026-04-29 10:07 | 24.96375 | 46.69101 | 2039 ft | 24 kts | 240° |
| 2026-04-29 10:07 | 24.96293 | 46.68945 | 2040 ft | 24 kts | 240° |
| 2026-04-29 10:07 | 24.96208 | 46.68784 | 2042 ft | 25 kts | 239° |
| 2026-04-29 10:08 | 24.96122 | 46.68620 | 2042 ft | 24 kts | 240° |
| 2026-04-29 10:08 | 24.96073 | 46.68497 | 2039 ft | 11 kts | 276° |
| 2026-04-29 10:08 | 24.96126 | 46.68445 | 2042 ft | 12 kts | 329° |
| 2026-04-29 10:08 | 24.96215 | 46.68389 | 2041 ft | 17 kts | 330° |
| 2026-04-29 10:09 | 24.96342 | 46.68309 | 2036 ft | 25 kts | 330° |
| 2026-04-29 10:09 | 24.96506 | 46.68205 | 2041 ft | 27 kts | 330° |
| 2026-04-29 10:09 | 24.96663 | 46.68105 | 2039 ft | 26 kts | 330° |
| 2026-04-29 10:09 | 24.96826 | 46.68003 | 2041 ft | 28 kts | 330° |
| 2026-04-29 10:10 | 24.96999 | 46.67893 | 2041 ft | 28 kts | 331° |
| 2026-04-29 10:10 | 24.97156 | 46.67794 | 2039 ft | 23 kts | 329° |
| 2026-04-29 10:10 | 24.97185 | 46.67698 | 2038 ft | 12 kts | 249° |
| 2026-04-29 10:10 | 24.97143 | 46.67624 | 2039 ft | 13 kts | 238° |
| 2026-04-29 10:11 | 24.97094 | 46.67534 | 2041 ft | 13 kts | 239° |
| 2026-04-29 10:11 | 24.97062 | 46.67514 | 2041 ft | 2 kts | 160° |
| 2026-04-29 10:11 | 24.97057 | 46.67518 | 2039 ft | 0 kts | 153° |
| 2026-04-29 10:11 | 24.96996 | 46.67552 | 2039 ft | 31 kts | 153° |
| 2026-04-29 10:12 | 24.96655 | 46.67768 | 2039 ft | 80 kts | 150° |
| 2026-04-29 10:12 | 24.96042 | 46.68156 | 2038 ft | 121 kts | 149° |
| 2026-04-29 10:12 | 24.95210 | 46.68686 | 2039 ft | 154 kts | 150° |
| 2026-04-29 10:12 | 24.94196 | 46.69338 | 2060 ft | 181 kts | 147° |
| 2026-04-29 10:13 | 24.93158 | 46.69943 | 2749 ft | 166 kts | 155° |
| 2026-04-29 10:13 | 24.91949 | 46.70354 | 2789 ft | 191 kts | 163° |
| 2026-04-29 10:13 | 24.90658 | 46.70686 | 3392 ft | 193 kts | 163° |
| 2026-04-29 10:13 | 24.89289 | 46.71064 | 3633 ft | 213 kts | 161° |
| 2026-04-29 10:14 | 24.87775 | 46.71518 | 3744 ft | 240 kts | 161° |
| 2026-04-29 10:14 | 24.86095 | 46.72039 | 4067 ft | 258 kts | 162° |
| 2026-04-29 10:14 | 24.84375 | 46.72574 | 4680 ft | 264 kts | 161° |
| 2026-04-29 10:14 | 24.82599 | 46.73131 | 5408 ft | 264 kts | 161° |
| 2026-04-29 10:15 | 24.80819 | 46.73563 | 6326 ft | 260 kts | 169° |
| 2026-04-29 10:15 | 24.79053 | 46.73874 | 7149 ft | 257 kts | 172° |
| 2026-04-29 10:15 | 24.77269 | 46.74169 | 7793 ft | 262 kts | 173° |
| 2026-04-29 10:15 | 24.75444 | 46.74472 | 8403 ft | 268 kts | 173° |
| 2026-04-29 10:16 | 24.73582 | 46.74784 | 9067 ft | 272 kts | 174° |
| 2026-04-29 10:16 | 24.72343 | 46.74991 | 9560 ft | 272 kts | 174° |
| 2026-04-29 10:16 | 24.69831 | 46.75413 | 10377 ft | 279 kts | 175° |
| 2026-04-29 10:16 | 24.67850 | 46.75742 | 10638 ft | 296 kts | 175° |
| 2026-04-29 10:17 | 24.65749 | 46.76090 | 10873 ft | 314 kts | 175° |
| 2026-04-29 10:17 | 24.63533 | 46.76444 | 11080 ft | 330 kts | 177° |
| 2026-04-29 10:17 | 24.61211 | 46.76447 | 11323 ft | 338 kts | 191° |
| 2026-04-29 10:17 | 24.58962 | 46.75687 | 11799 ft | 340 kts | 208° |
| 2026-04-29 10:18 | 24.57036 | 46.74181 | 12325 ft | 342 kts | 225° |
| 2026-04-29 10:18 | 24.55603 | 46.72092 | 12945 ft | 344 kts | 238° |
| 2026-04-29 10:18 | 24.54430 | 46.69794 | 13601 ft | 345 kts | 241° |
| 2026-04-29 10:18 | 24.53288 | 46.67467 | 14150 ft | 347 kts | 241° |
| 2026-04-29 10:19 | 24.52135 | 46.65130 | 14712 ft | 349 kts | 241° |
| 2026-04-29 10:19 | 24.50971 | 46.62789 | 15266 ft | 350 kts | 241° |
| 2026-04-29 10:19 | 24.49804 | 46.60439 | 15866 ft | 351 kts | 242° |
| 2026-04-29 10:19 | 24.48820 | 46.58024 | 16485 ft | 353 kts | 251° |
| 2026-04-29 10:20 | 24.48374 | 46.55365 | 17030 ft | 359 kts | 265° |
| 2026-04-29 10:20 | 24.48650 | 46.52608 | 17592 ft | 369 kts | 281° |
| 2026-04-29 10:20 | 24.49676 | 46.49985 | 18173 ft | 381 kts | 296° |
| 2026-04-29 10:20 | 24.51210 | 46.47583 | 18666 ft | 387 kts | 301° |
| 2026-04-29 10:21 | 24.52851 | 46.45223 | 19091 ft | 391 kts | 301° |
| 2026-04-29 10:21 | 24.54510 | 46.42842 | 19552 ft | 394 kts | 301° |
| 2026-04-29 10:21 | 24.56173 | 46.40436 | 20023 ft | 396 kts | 301° |
| 2026-04-29 10:21 | 24.57840 | 46.38014 | 20471 ft | 399 kts | 301° |
| 2026-04-29 10:22 | 24.59515 | 46.35569 | 20906 ft | 402 kts | 300° |
| 2026-04-29 10:22 | 24.61201 | 46.33103 | 21299 ft | 405 kts | 301° |
| 2026-04-29 10:22 | 24.62898 | 46.30617 | 21790 ft | 407 kts | 301° |
| 2026-04-29 10:22 | 24.64601 | 46.28120 | 22268 ft | 409 kts | 301° |
| 2026-04-29 10:23 | 24.66312 | 46.25609 | 22715 ft | 412 kts | 301° |
| 2026-04-29 10:23 | 24.68038 | 46.23075 | 23145 ft | 415 kts | 301° |
| 2026-04-29 10:23 | 24.69769 | 46.20530 | 23572 ft | 417 kts | 301° |
| 2026-04-29 10:23 | 24.71513 | 46.17968 | 23937 ft | 419 kts | 301° |
| 2026-04-29 10:24 | 24.72673 | 46.16268 | 24170 ft | 420 kts | 301° |
| 2026-04-29 10:24 | 24.75000 | 46.12847 | 24619 ft | 423 kts | 300° |
| 2026-04-29 10:24 | 24.76765 | 46.10246 | 25012 ft | 424 kts | 300° |
| 2026-04-29 10:24 | 24.78530 | 46.07648 | 25402 ft | 424 kts | 300° |
| 2026-04-29 10:25 | 24.80299 | 46.05042 | 25739 ft | 426 kts | 300° |
| 2026-04-29 10:25 | 24.82079 | 46.02420 | 26057 ft | 428 kts | 300° |
| 2026-04-29 10:25 | 24.83285 | 46.00642 | 26256 ft | 430 kts | 300° |
| 2026-04-29 10:25 | 24.85078 | 45.97996 | 26571 ft | 432 kts | 300° |
| 2026-04-29 10:26 | 24.86852 | 45.95379 | 26882 ft | 433 kts | 300° |
| 2026-04-29 10:26 | 24.88656 | 45.92715 | 27205 ft | 435 kts | 300° |
| 2026-04-29 10:26 | 24.90471 | 45.90033 | 27495 ft | 437 kts | 300° |
| 2026-04-29 10:26 | 24.92291 | 45.87344 | 27843 ft | 438 kts | 299° |
| 2026-04-29 10:27 | 24.95942 | 45.81943 | 28420 ft | 441 kts | 299° |
| 2026-04-29 10:27 | 24.97780 | 45.79221 | 28684 ft | 443 kts | 299° |
| 2026-04-29 10:27 | 24.99625 | 45.76485 | 28936 ft | 445 kts | 299° |
| 2026-04-29 10:28 | 25.01477 | 45.73741 | 29198 ft | 447 kts | 299° |
| 2026-04-29 10:28 | 25.03317 | 45.70974 | 29447 ft | 447 kts | 297° |
| 2026-04-29 10:28 | 25.04895 | 45.68046 | 29673 ft | 441 kts | 289° |
| 2026-04-29 10:28 | 25.06005 | 45.64931 | 29948 ft | 434 kts | 281° |
| 2026-04-29 10:29 | 25.06723 | 45.61743 | 29974 ft | 423 kts | 277° |
| 2026-04-29 10:29 | 25.07846 | 45.55442 | 29973 ft | 417 kts | 275° |
| 2026-04-29 10:30 | 25.08862 | 45.49144 | 29979 ft | 417 kts | 275° |
| 2026-04-29 10:30 | 25.09894 | 45.42849 | 29977 ft | 417 kts | 275° |
| 2026-04-29 10:31 | 25.10950 | 45.36548 | 29980 ft | 417 kts | 275° |
| 2026-04-29 10:31 | 25.12004 | 45.30305 | 29985 ft | 416 kts | 275° |
| 2026-04-29 10:32 | 25.13061 | 45.24027 | 29987 ft | 416 kts | 275° |
| 2026-04-29 10:32 | 25.14111 | 45.17764 | 29981 ft | 415 kts | 275° |
| 2026-04-29 10:33 | 25.15158 | 45.11493 | 29979 ft | 416 kts | 275° |
| 2026-04-29 10:33 | 25.16205 | 45.05215 | 29976 ft | 416 kts | 275° |
| 2026-04-29 10:34 | 25.17248 | 44.98937 | 29972 ft | 416 kts | 275° |
| 2026-04-29 10:34 | 25.18285 | 44.92683 | 29975 ft | 416 kts | 275° |
| 2026-04-29 10:35 | 25.19324 | 44.86404 | 29974 ft | 416 kts | 275° |
| 2026-04-29 10:35 | 25.20361 | 44.80114 | 29974 ft | 416 kts | 275° |
| 2026-04-29 10:36 | 25.21394 | 44.73830 | 29971 ft | 416 kts | 275° |
| 2026-04-29 10:36 | 25.22425 | 44.67542 | 29970 ft | 416 kts | 275° |
| 2026-04-29 10:37 | 25.23453 | 44.61253 | 29989 ft | 416 kts | 275° |
| 2026-04-29 10:37 | 25.24472 | 44.55014 | 29971 ft | 414 kts | 275° |
| 2026-04-29 10:38 | 25.25492 | 44.48760 | 29961 ft | 414 kts | 275° |
| 2026-04-29 10:38 | 25.26648 | 44.42520 | 29961 ft | 415 kts | 277° |
| 2026-04-29 10:39 | 25.27870 | 44.36298 | 29967 ft | 414 kts | 277° |
| 2026-04-29 10:39 | 25.29072 | 44.30089 | 29969 ft | 413 kts | 276° |
| 2026-04-29 10:40 | 25.30252 | 44.23879 | 29966 ft | 413 kts | 276° |
| 2026-04-29 10:40 | 25.31422 | 44.17674 | 29963 ft | 412 kts | 276° |
| 2026-04-29 10:41 | 25.32587 | 44.11477 | 29959 ft | 412 kts | 276° |
| 2026-04-29 10:41 | 25.33750 | 44.05283 | 29957 ft | 412 kts | 276° |
| 2026-04-29 10:42 | 25.34911 | 43.99087 | 29955 ft | 411 kts | 276° |
| 2026-04-29 10:42 | 25.36067 | 43.92904 | 29956 ft | 410 kts | 276° |
| 2026-04-29 10:43 | 25.37218 | 43.86731 | 29953 ft | 410 kts | 276° |
| 2026-04-29 10:43 | 25.38359 | 43.80597 | 29951 ft | 410 kts | 276° |
| 2026-04-29 10:44 | 25.39503 | 43.74435 | 29944 ft | 409 kts | 276° |
| 2026-04-29 10:44 | 25.40643 | 43.68276 | 29945 ft | 409 kts | 276° |
| 2026-04-29 10:45 | 25.41779 | 43.62120 | 29972 ft | 409 kts | 276° |
| 2026-04-29 10:45 | 25.42913 | 43.55966 | 29947 ft | 407 kts | 276° |
| 2026-04-29 10:46 | 25.44040 | 43.49831 | 29938 ft | 407 kts | 275° |
| 2026-04-29 10:46 | 25.45164 | 43.43698 | 29938 ft | 407 kts | 275° |
| 2026-04-29 10:47 | 25.46286 | 43.37559 | 29933 ft | 406 kts | 275° |
| 2026-04-29 10:47 | 25.47404 | 43.31432 | 29933 ft | 406 kts | 275° |
| 2026-04-29 10:48 | 25.48519 | 43.25306 | 29930 ft | 406 kts | 275° |
| 2026-04-29 10:48 | 25.49631 | 43.19178 | 29931 ft | 406 kts | 275° |
| 2026-04-29 10:49 | 25.50740 | 43.13055 | 29925 ft | 405 kts | 275° |
| 2026-04-29 10:49 | 25.51845 | 43.06935 | 29925 ft | 405 kts | 275° |
| 2026-04-29 10:50 | 25.52948 | 43.00814 | 29931 ft | 406 kts | 275° |
| 2026-04-29 10:50 | 25.54051 | 42.94687 | 29920 ft | 405 kts | 275° |
| 2026-04-29 10:51 | 25.55149 | 42.88574 | 29919 ft | 405 kts | 275° |
| 2026-04-29 10:51 | 25.56236 | 42.82499 | 29920 ft | 405 kts | 276° |
| 2026-04-29 10:52 | 25.57323 | 42.76369 | 29917 ft | 406 kts | 275° |
| 2026-04-29 10:52 | 25.58418 | 42.70243 | 29917 ft | 405 kts | 275° |
| 2026-04-29 10:53 | 25.59511 | 42.64120 | 29917 ft | 405 kts | 275° |
| 2026-04-29 10:53 | 25.60598 | 42.57996 | 29921 ft | 404 kts | 275° |
| 2026-04-29 10:54 | 25.61679 | 42.51887 | 29913 ft | 404 kts | 275° |
| 2026-04-29 10:54 | 25.62757 | 42.45779 | 29914 ft | 404 kts | 275° |
| 2026-04-29 10:55 | 25.63834 | 42.39659 | 29924 ft | 404 kts | 276° |
| 2026-04-29 10:55 | 25.64907 | 42.33549 | 29914 ft | 404 kts | 275° |
| 2026-04-29 10:56 | 25.65969 | 42.27487 | 29919 ft | 404 kts | 276° |
| 2026-04-29 10:56 | 25.67416 | 42.21435 | 29919 ft | 407 kts | 280° |
| 2026-04-29 10:57 | 25.69025 | 42.15406 | 29918 ft | 408 kts | 281° |
| 2026-04-29 10:57 | 25.70658 | 42.09384 | 29922 ft | 408 kts | 281° |
| 2026-04-29 10:58 | 25.72287 | 42.03357 | 29921 ft | 408 kts | 281° |
| 2026-04-29 10:58 | 25.73907 | 41.97332 | 29926 ft | 408 kts | 281° |
| 2026-04-29 10:59 | 25.75520 | 41.91310 | 29919 ft | 407 kts | 281° |
| 2026-04-29 10:59 | 25.77131 | 41.85286 | 29925 ft | 407 kts | 281° |
| 2026-04-29 11:00 | 25.78742 | 41.79250 | 29928 ft | 407 kts | 281° |
| 2026-04-29 11:00 | 25.80337 | 41.73265 | 29936 ft | 407 kts | 281° |
| 2026-04-29 11:01 | 25.81941 | 41.67234 | 29940 ft | 408 kts | 281° |
| 2026-04-29 11:01 | 25.83545 | 41.61193 | 29939 ft | 408 kts | 281° |
| 2026-04-29 11:02 | 25.85147 | 41.55148 | 29951 ft | 408 kts | 282° |
| 2026-04-29 11:02 | 25.86744 | 41.49111 | 29953 ft | 408 kts | 282° |
| 2026-04-29 11:03 | 25.88340 | 41.43069 | 29964 ft | 408 kts | 282° |
| 2026-04-29 11:03 | 25.89932 | 41.37030 | 29962 ft | 408 kts | 282° |
| 2026-04-29 11:04 | 25.91523 | 41.30984 | 29974 ft | 407 kts | 282° |
| 2026-04-29 11:04 | 25.93106 | 41.24955 | 29977 ft | 407 kts | 282° |
| 2026-04-29 11:05 | 25.94688 | 41.18917 | 29974 ft | 407 kts | 282° |
| 2026-04-29 11:05 | 25.96272 | 41.12862 | 29998 ft | 408 kts | 282° |
| 2026-04-29 11:06 | 25.97844 | 41.06845 | 29992 ft | 408 kts | 282° |
| 2026-04-29 11:06 | 25.99422 | 41.00791 | 29991 ft | 407 kts | 282° |
| 2026-04-29 11:07 | 26.00996 | 40.94741 | 29997 ft | 407 kts | 282° |
| 2026-04-29 11:07 | 26.02568 | 40.88688 | 30011 ft | 407 kts | 282° |
| 2026-04-29 11:08 | 26.04136 | 40.82639 | 30006 ft | 407 kts | 282° |
| 2026-04-29 11:08 | 26.05700 | 40.76596 | 30007 ft | 406 kts | 282° |
| 2026-04-29 11:09 | 26.07264 | 40.70551 | 30011 ft | 406 kts | 282° |
| 2026-04-29 11:09 | 26.08813 | 40.64542 | 30007 ft | 406 kts | 282° |
| 2026-04-29 11:10 | 26.10366 | 40.58496 | 30008 ft | 407 kts | 282° |
| 2026-04-29 11:10 | 26.11925 | 40.52430 | 30008 ft | 407 kts | 282° |
| 2026-04-29 11:11 | 26.13474 | 40.46381 | 30014 ft | 407 kts | 282° |
| 2026-04-29 11:11 | 26.15019 | 40.40337 | 30006 ft | 406 kts | 282° |
| 2026-04-29 11:12 | 26.16563 | 40.34301 | 30012 ft | 405 kts | 282° |
| 2026-04-29 11:12 | 26.18101 | 40.28269 | 30009 ft | 405 kts | 282° |
| 2026-04-29 11:13 | 26.19622 | 40.22275 | 30010 ft | 405 kts | 282° |
| 2026-04-29 11:13 | 26.21150 | 40.16247 | 30008 ft | 405 kts | 282° |
| 2026-04-29 11:14 | 26.22678 | 40.10214 | 30003 ft | 405 kts | 282° |
| 2026-04-29 11:14 | 26.24202 | 40.04184 | 30008 ft | 405 kts | 282° |
| 2026-04-29 11:15 | 26.25727 | 39.98145 | 30003 ft | 404 kts | 282° |
| 2026-04-29 11:15 | 26.26987 | 39.93145 | 30007 ft | 403 kts | 282° |
| 2026-04-29 11:16 | 26.28499 | 39.87128 | 29990 ft | 403 kts | 282° |
| 2026-04-29 11:16 | 26.30257 | 39.80123 | 30018 ft | 404 kts | 282° |
| 2026-04-29 11:17 | 26.31519 | 39.75085 | 29990 ft | 402 kts | 282° |
| 2026-04-29 11:17 | 26.33009 | 39.69124 | 29989 ft | 401 kts | 282° |
| 2026-04-29 11:18 | 26.34505 | 39.63130 | 29982 ft | 401 kts | 282° |
| 2026-04-29 11:18 | 26.35996 | 39.57141 | 29990 ft | 401 kts | 282° |
| 2026-04-29 11:19 | 26.37481 | 39.51168 | 29975 ft | 399 kts | 282° |
| 2026-04-29 11:19 | 26.38962 | 39.45201 | 29970 ft | 399 kts | 282° |
| 2026-04-29 11:20 | 26.40439 | 39.39231 | 29966 ft | 399 kts | 282° |
| 2026-04-29 11:20 | 26.41913 | 39.33264 | 29975 ft | 399 kts | 282° |
| 2026-04-29 11:21 | 26.43373 | 39.27349 | 29966 ft | 398 kts | 282° |
| 2026-04-29 11:21 | 26.44898 | 39.21413 | 29967 ft | 398 kts | 283° |
| 2026-04-29 11:22 | 26.46490 | 39.15499 | 29968 ft | 398 kts | 284° |
| 2026-04-29 11:22 | 26.48077 | 39.09583 | 29968 ft | 398 kts | 284° |
| 2026-04-29 11:23 | 26.49649 | 39.03663 | 29968 ft | 398 kts | 284° |
| 2026-04-29 11:23 | 26.51213 | 38.97738 | 29966 ft | 398 kts | 284° |
| 2026-04-29 11:24 | 26.52774 | 38.91813 | 29968 ft | 398 kts | 283° |
| 2026-04-29 11:24 | 26.54331 | 38.85888 | 29967 ft | 398 kts | 284° |
| 2026-04-29 11:25 | 26.55889 | 38.79955 | 29962 ft | 398 kts | 284° |
| 2026-04-29 11:25 | 26.57434 | 38.74061 | 29964 ft | 398 kts | 284° |
| 2026-04-29 11:26 | 26.59760 | 38.65164 | 29967 ft | 398 kts | 284° |
| 2026-04-29 11:26 | 26.61309 | 38.59226 | 29958 ft | 398 kts | 284° |
| 2026-04-29 11:27 | 26.62859 | 38.53274 | 29958 ft | 399 kts | 284° |
| 2026-04-29 11:27 | 26.64405 | 38.47326 | 29957 ft | 399 kts | 284° |
| 2026-04-29 11:28 | 26.65949 | 38.41372 | 29949 ft | 399 kts | 284° |
| 2026-04-29 11:28 | 26.67492 | 38.35417 | 29947 ft | 399 kts | 284° |
| 2026-04-29 11:29 | 26.69032 | 38.29455 | 29947 ft | 399 kts | 284° |
| 2026-04-29 11:29 | 26.70571 | 38.23491 | 29943 ft | 399 kts | 284° |
| 2026-04-29 11:30 | 26.72096 | 38.17567 | 29951 ft | 399 kts | 284° |
| 2026-04-29 11:30 | 26.73631 | 38.11591 | 29948 ft | 401 kts | 284° |
| 2026-04-29 11:31 | 26.75170 | 38.05590 | 29944 ft | 401 kts | 284° |
| 2026-04-29 11:31 | 26.76705 | 37.99593 | 29948 ft | 401 kts | 284° |
| 2026-04-29 11:32 | 26.78241 | 37.93585 | 29921 ft | 401 kts | 284° |
| 2026-04-29 11:32 | 26.79773 | 37.87579 | 29943 ft | 401 kts | 284° |
| 2026-04-29 11:33 | 26.81301 | 37.81576 | 29943 ft | 401 kts | 284° |
| 2026-04-29 11:33 | 26.82818 | 37.75600 | 29946 ft | 401 kts | 284° |
| 2026-04-29 11:34 | 26.84340 | 37.69600 | 29950 ft | 401 kts | 284° |
| 2026-04-29 11:34 | 26.85860 | 37.63595 | 29950 ft | 401 kts | 284° |
| 2026-04-29 11:35 | 26.87377 | 37.57586 | 29955 ft | 401 kts | 284° |
| 2026-04-29 11:35 | 26.88893 | 37.51573 | 29961 ft | 401 kts | 284° |
| 2026-04-29 11:36 | 26.90407 | 37.45554 | 29959 ft | 402 kts | 284° |
| 2026-04-29 11:36 | 26.91925 | 37.39504 | 29962 ft | 404 kts | 284° |
| 2026-04-29 11:37 | 26.93444 | 37.33450 | 29959 ft | 403 kts | 284° |
| 2026-04-29 11:37 | 26.94947 | 37.27439 | 29960 ft | 403 kts | 284° |
| 2026-04-29 11:38 | 26.96458 | 37.21383 | 29963 ft | 404 kts | 284° |
| 2026-04-29 11:38 | 26.97971 | 37.15309 | 29959 ft | 404 kts | 284° |
| 2026-04-29 11:39 | 26.99483 | 37.09231 | 29953 ft | 405 kts | 284° |
| 2026-04-29 11:39 | 27.00991 | 37.03152 | 29956 ft | 405 kts | 284° |
| 2026-04-29 11:40 | 27.02498 | 36.97066 | 29957 ft | 404 kts | 284° |
| 2026-04-29 11:40 | 27.03999 | 36.90972 | 29956 ft | 406 kts | 285° |
| 2026-04-29 11:41 | 27.05491 | 36.84922 | 29950 ft | 404 kts | 284° |
| 2026-04-29 11:41 | 27.06989 | 36.78836 | 29948 ft | 405 kts | 284° |
| 2026-04-29 11:42 | 27.08488 | 36.72746 | 29942 ft | 405 kts | 284° |
| 2026-04-29 11:42 | 27.09983 | 36.66654 | 29944 ft | 405 kts | 285° |
| 2026-04-29 11:43 | 27.11476 | 36.60554 | 29937 ft | 405 kts | 285° |
| 2026-04-29 11:43 | 27.12965 | 36.54460 | 29933 ft | 405 kts | 285° |
| 2026-04-29 11:44 | 27.14454 | 36.48367 | 29932 ft | 405 kts | 285° |
| 2026-04-29 11:44 | 27.15936 | 36.42258 | 29923 ft | 406 kts | 285° |
| 2026-04-29 11:45 | 27.17418 | 36.36141 | 29921 ft | 406 kts | 285° |
| 2026-04-29 11:45 | 27.18900 | 36.30018 | 29922 ft | 406 kts | 285° |
| 2026-04-29 11:46 | 27.20368 | 36.23941 | 29922 ft | 405 kts | 285° |
| 2026-04-29 11:46 | 27.21842 | 36.17825 | 29926 ft | 406 kts | 285° |
| 2026-04-29 11:47 | 27.23315 | 36.11706 | 29923 ft | 406 kts | 285° |
| 2026-04-29 11:47 | 27.24787 | 36.05576 | 29922 ft | 406 kts | 285° |
| 2026-04-29 11:48 | 27.26258 | 35.99437 | 29920 ft | 406 kts | 285° |
| 2026-04-29 11:48 | 27.27722 | 35.93312 | 29921 ft | 406 kts | 285° |
| 2026-04-29 11:49 | 27.29183 | 35.87190 | 29923 ft | 406 kts | 285° |
| 2026-04-29 11:49 | 27.30642 | 35.81061 | 29923 ft | 406 kts | 285° |
| 2026-04-29 11:50 | 27.32091 | 35.74965 | 29932 ft | 406 kts | 285° |
| 2026-04-29 11:50 | 27.33545 | 35.68832 | 29922 ft | 406 kts | 285° |
| 2026-04-29 11:51 | 27.34999 | 35.62689 | 29920 ft | 407 kts | 285° |
| 2026-04-29 11:51 | 27.36451 | 35.56540 | 29920 ft | 407 kts | 285° |
| 2026-04-29 11:52 | 27.37901 | 35.50388 | 29916 ft | 406 kts | 285° |
| 2026-04-29 11:52 | 27.39347 | 35.44234 | 29917 ft | 407 kts | 285° |
| 2026-04-29 11:53 | 27.40795 | 35.38064 | 29917 ft | 407 kts | 285° |
| 2026-04-29 11:53 | 27.42228 | 35.31942 | 29912 ft | 407 kts | 285° |
| 2026-04-29 11:54 | 27.43668 | 35.25780 | 29912 ft | 407 kts | 285° |
| 2026-04-29 11:54 | 27.45105 | 35.19617 | 29908 ft | 407 kts | 285° |
| 2026-04-29 11:55 | 27.46540 | 35.13448 | 29902 ft | 407 kts | 285° |
| 2026-04-29 11:55 | 27.47975 | 35.07264 | 29902 ft | 407 kts | 285° |
| 2026-04-29 11:56 | 27.49407 | 35.01085 | 29899 ft | 407 kts | 285° |
| 2026-04-29 11:56 | 27.51225 | 34.95052 | 29902 ft | 408 kts | 295° |
| 2026-04-29 11:57 | 27.54385 | 34.89739 | 29904 ft | 413 kts | 309° |
| 2026-04-29 11:57 | 27.58450 | 34.85193 | 29906 ft | 415 kts | 313° |
| 2026-04-29 11:58 | 27.62699 | 34.80756 | 29902 ft | 416 kts | 313° |
| 2026-04-29 11:58 | 27.66949 | 34.76325 | 29902 ft | 416 kts | 313° |
| 2026-04-29 11:59 | 27.71179 | 34.71867 | 29905 ft | 416 kts | 313° |
| 2026-04-29 11:59 | 27.75387 | 34.67406 | 29911 ft | 415 kts | 313° |
| 2026-04-29 12:00 | 27.79584 | 34.62946 | 29931 ft | 413 kts | 313° |
| 2026-04-29 12:00 | 27.83762 | 34.58505 | 29945 ft | 412 kts | 313° |
| 2026-04-29 12:01 | 27.87936 | 34.54062 | 29958 ft | 412 kts | 313° |
| 2026-04-29 12:01 | 27.92087 | 34.49641 | 29970 ft | 412 kts | 313° |
| 2026-04-29 12:02 | 27.96267 | 34.45182 | 29968 ft | 414 kts | 313° |
| 2026-04-29 12:02 | 28.00339 | 34.40578 | 29962 ft | 413 kts | 308° |
| 2026-04-29 12:03 | 28.04049 | 34.35611 | 29965 ft | 413 kts | 307° |
| 2026-04-29 12:03 | 28.07688 | 34.30583 | 29934 ft | 412 kts | 307° |
| 2026-04-29 12:04 | 28.11315 | 34.25545 | 29958 ft | 413 kts | 307° |
| 2026-04-29 12:04 | 28.14944 | 34.20499 | 29949 ft | 413 kts | 307° |
| 2026-04-29 12:05 | 28.18550 | 34.15486 | 29940 ft | 412 kts | 307° |
| 2026-04-29 12:05 | 28.22175 | 34.10448 | 29962 ft | 413 kts | 307° |
| 2026-04-29 12:06 | 28.25805 | 34.05403 | 29956 ft | 412 kts | 307° |
| 2026-04-29 12:06 | 28.29425 | 34.00353 | 29968 ft | 413 kts | 307° |
| 2026-04-29 12:07 | 28.33051 | 33.95304 | 29963 ft | 413 kts | 307° |
| 2026-04-29 12:07 | 28.36660 | 33.90270 | 29960 ft | 413 kts | 307° |
| 2026-04-29 12:08 | 28.40281 | 33.85211 | 29970 ft | 412 kts | 307° |
| 2026-04-29 12:08 | 28.43895 | 33.80153 | 29962 ft | 412 kts | 307° |
| 2026-04-29 12:09 | 28.47507 | 33.75081 | 29965 ft | 413 kts | 307° |
| 2026-04-29 12:09 | 28.51122 | 33.70000 | 29964 ft | 413 kts | 307° |
| 2026-04-29 12:10 | 28.54126 | 33.65787 | 29995 ft | 412 kts | 307° |
| 2026-04-29 12:10 | 28.57745 | 33.60734 | 29968 ft | 411 kts | 307° |
| 2026-04-29 12:11 | 28.61351 | 33.55669 | 29969 ft | 412 kts | 307° |
| 2026-04-29 12:11 | 28.64953 | 33.50606 | 29965 ft | 411 kts | 307° |
| 2026-04-29 12:12 | 28.68542 | 33.45540 | 29968 ft | 411 kts | 307° |
| 2026-04-29 12:12 | 28.72128 | 33.40468 | 29975 ft | 411 kts | 307° |
| 2026-04-29 12:13 | 28.75717 | 33.35391 | 29976 ft | 411 kts | 307° |
| 2026-04-29 12:13 | 28.79300 | 33.30319 | 29966 ft | 411 kts | 307° |
| 2026-04-29 12:14 | 28.82880 | 33.25247 | 29973 ft | 410 kts | 307° |
| 2026-04-29 12:14 | 28.86456 | 33.20174 | 29978 ft | 410 kts | 307° |
| 2026-04-29 12:15 | 28.90006 | 33.15130 | 29979 ft | 410 kts | 307° |
| 2026-04-29 12:15 | 28.93571 | 33.10058 | 29978 ft | 409 kts | 307° |
| 2026-04-29 12:16 | 28.97125 | 33.04997 | 29979 ft | 408 kts | 307° |
| 2026-04-29 12:16 | 29.00676 | 32.99933 | 29977 ft | 408 kts | 307° |
| 2026-04-29 12:17 | 29.04226 | 32.94866 | 29981 ft | 408 kts | 307° |
| 2026-04-29 12:17 | 29.07778 | 32.89789 | 29979 ft | 408 kts | 307° |
| 2026-04-29 12:18 | 29.11292 | 32.84759 | 29982 ft | 406 kts | 307° |
| 2026-04-29 12:18 | 29.14814 | 32.79714 | 29985 ft | 405 kts | 307° |
| 2026-04-29 12:19 | 29.18333 | 32.74666 | 29985 ft | 405 kts | 307° |
| 2026-04-29 12:19 | 29.21846 | 32.69620 | 29990 ft | 405 kts | 307° |
| 2026-04-29 12:20 | 29.25355 | 32.64573 | 29990 ft | 405 kts | 307° |
| 2026-04-29 12:20 | 29.28862 | 32.59524 | 29996 ft | 404 kts | 308° |
| 2026-04-29 12:21 | 29.32335 | 32.54491 | 29997 ft | 401 kts | 307° |
| 2026-04-29 12:21 | 29.35781 | 32.49458 | 29999 ft | 402 kts | 307° |
| 2026-04-29 12:22 | 29.39215 | 32.44438 | 30007 ft | 403 kts | 307° |
| 2026-04-29 12:22 | 29.42677 | 32.39381 | 30011 ft | 403 kts | 307° |
| 2026-04-29 12:23 | 29.46139 | 32.34320 | 30013 ft | 403 kts | 307° |
| 2026-04-29 12:23 | 29.49582 | 32.29282 | 30014 ft | 400 kts | 307° |
| 2026-04-29 12:24 | 29.53011 | 32.24257 | 30016 ft | 399 kts | 307° |
| 2026-04-29 12:24 | 29.56436 | 32.19230 | 30013 ft | 399 kts | 307° |
| 2026-04-29 12:25 | 29.59855 | 32.14208 | 30024 ft | 399 kts | 307° |
| 2026-04-29 12:26 | 29.64976 | 32.06673 | 30014 ft | 399 kts | 307° |
| 2026-04-29 12:26 | 29.68373 | 32.01668 | 30019 ft | 396 kts | 307° |
| 2026-04-29 12:27 | 29.71760 | 31.96670 | 30016 ft | 396 kts | 307° |
| 2026-04-29 12:27 | 29.75119 | 31.91708 | 30055 ft | 396 kts | 307° |
| 2026-04-29 12:28 | 29.78497 | 31.86713 | 30028 ft | 395 kts | 307° |
| 2026-04-29 12:28 | 29.81805 | 31.81663 | 30034 ft | 395 kts | 306° |
| 2026-04-29 12:29 | 29.85038 | 31.76570 | 30036 ft | 392 kts | 306° |
| 2026-04-29 12:29 | 29.88252 | 31.71511 | 30039 ft | 390 kts | 306° |
| 2026-04-29 12:30 | 29.91473 | 31.66468 | 30035 ft | 390 kts | 306° |
| 2026-04-29 12:30 | 29.94715 | 31.61442 | 30039 ft | 390 kts | 306° |
| 2026-04-29 12:31 | 29.97962 | 31.56432 | 30022 ft | 390 kts | 306° |
| 2026-04-29 12:31 | 30.01211 | 31.51409 | 30019 ft | 390 kts | 306° |
| 2026-04-29 12:32 | 30.04445 | 31.46398 | 29994 ft | 389 kts | 306° |
| 2026-04-29 12:32 | 30.07652 | 31.41421 | 29994 ft | 389 kts | 306° |
| 2026-04-29 12:33 | 30.11279 | 31.36784 | 29992 ft | 390 kts | 313° |
| 2026-04-29 12:33 | 30.15225 | 31.32462 | 30017 ft | 391 kts | 314° |
| 2026-04-29 12:34 | 30.19215 | 31.28200 | 29998 ft | 390 kts | 315° |
| 2026-04-29 12:34 | 30.23205 | 31.23935 | 30002 ft | 390 kts | 314° |
| 2026-04-29 12:35 | 30.27181 | 31.19664 | 30022 ft | 390 kts | 314° |
| 2026-04-29 12:35 | 30.31124 | 31.15417 | 30022 ft | 390 kts | 314° |
| 2026-04-29 12:36 | 30.35089 | 31.11139 | 30023 ft | 390 kts | 314° |
| 2026-04-29 12:36 | 30.39051 | 31.06859 | 30023 ft | 389 kts | 314° |
| 2026-04-29 12:37 | 30.43011 | 31.02577 | 30020 ft | 389 kts | 314° |
| 2026-04-29 12:37 | 30.46971 | 30.98291 | 30019 ft | 390 kts | 314° |
| 2026-04-29 12:38 | 30.50932 | 30.93999 | 30016 ft | 389 kts | 314° |
| 2026-04-29 12:38 | 30.54885 | 30.89710 | 30018 ft | 388 kts | 314° |
| 2026-04-29 12:39 | 30.58831 | 30.85424 | 30021 ft | 388 kts | 314° |
| 2026-04-29 12:39 | 30.62774 | 30.81135 | 30025 ft | 388 kts | 314° |
| 2026-04-29 12:40 | 30.66715 | 30.76844 | 30019 ft | 388 kts | 314° |
| 2026-04-29 12:40 | 30.70657 | 30.72547 | 30018 ft | 388 kts | 314° |
| 2026-04-29 12:41 | 30.74596 | 30.68248 | 30018 ft | 388 kts | 314° |
| 2026-04-29 12:41 | 30.78508 | 30.63974 | 30018 ft | 388 kts | 314° |
| 2026-04-29 12:42 | 30.82443 | 30.59669 | 30022 ft | 388 kts | 314° |
| 2026-04-29 12:42 | 30.86377 | 30.55361 | 30027 ft | 388 kts | 314° |
| 2026-04-29 12:43 | 30.90309 | 30.51049 | 30030 ft | 388 kts | 314° |
| 2026-04-29 12:43 | 30.94237 | 30.46737 | 30026 ft | 388 kts | 314° |
| 2026-04-29 12:44 | 30.98167 | 30.42417 | 30035 ft | 388 kts | 314° |
| 2026-04-29 12:44 | 31.02092 | 30.38098 | 30030 ft | 388 kts | 314° |
| 2026-04-29 12:45 | 31.05993 | 30.33749 | 30040 ft | 387 kts | 311° |
| 2026-04-29 12:45 | 31.09199 | 30.28757 | 30041 ft | 385 kts | 299° |
| 2026-04-29 12:46 | 31.11248 | 30.23043 | 30043 ft | 385 kts | 291° |
| 2026-04-29 12:46 | 31.12899 | 30.17096 | 30042 ft | 385 kts | 289° |
| 2026-04-29 12:47 | 31.14489 | 30.11113 | 30043 ft | 385 kts | 289° |
| 2026-04-29 12:47 | 31.16091 | 30.05139 | 30051 ft | 385 kts | 289° |
| 2026-04-29 12:48 | 31.17706 | 29.99179 | 30054 ft | 385 kts | 290° |
| 2026-04-29 12:48 | 31.19938 | 29.93524 | 30046 ft | 384 kts | 302° |
| 2026-04-29 12:49 | 31.22963 | 29.88376 | 30048 ft | 385 kts | 304° |
| 2026-04-29 12:49 | 31.26108 | 29.83359 | 30050 ft | 385 kts | 305° |
| 2026-04-29 12:50 | 31.29288 | 29.78317 | 30051 ft | 385 kts | 305° |
| 2026-04-29 12:50 | 31.32462 | 29.73246 | 30050 ft | 386 kts | 304° |
| 2026-04-29 12:51 | 31.35622 | 29.68170 | 30051 ft | 386 kts | 304° |
| 2026-04-29 12:51 | 31.38776 | 29.63090 | 30053 ft | 386 kts | 304° |
| 2026-04-29 12:52 | 31.41931 | 29.58004 | 30055 ft | 386 kts | 304° |
| 2026-04-29 12:52 | 31.45083 | 29.52917 | 30048 ft | 386 kts | 304° |
| 2026-04-29 12:53 | 31.48230 | 29.47833 | 30055 ft | 386 kts | 304° |
| 2026-04-29 12:53 | 31.51355 | 29.42776 | 30054 ft | 386 kts | 304° |
| 2026-04-29 12:54 | 31.54500 | 29.37681 | 30052 ft | 386 kts | 304° |
| 2026-04-29 12:54 | 31.57643 | 29.32582 | 30056 ft | 386 kts | 304° |
| 2026-04-29 12:55 | 31.60787 | 29.27479 | 30055 ft | 386 kts | 304° |
| 2026-04-29 12:55 | 31.63918 | 29.22367 | 30057 ft | 386 kts | 304° |
| 2026-04-29 12:56 | 31.67048 | 29.17248 | 30056 ft | 386 kts | 304° |
| 2026-04-29 12:56 | 31.70182 | 29.12119 | 30056 ft | 386 kts | 304° |
| 2026-04-29 12:57 | 31.73317 | 29.06985 | 30056 ft | 387 kts | 304° |
| 2026-04-29 12:57 | 31.76439 | 29.01877 | 30056 ft | 387 kts | 304° |
| 2026-04-29 12:58 | 31.79571 | 28.96733 | 30059 ft | 387 kts | 304° |
| 2026-04-29 12:58 | 31.82704 | 28.91582 | 30058 ft | 387 kts | 304° |
| 2026-04-29 12:59 | 31.85834 | 28.86430 | 30059 ft | 387 kts | 304° |
| 2026-04-29 12:59 | 31.88965 | 28.81271 | 30058 ft | 387 kts | 304° |
| 2026-04-29 13:00 | 31.92090 | 28.76115 | 30060 ft | 387 kts | 304° |
| 2026-04-29 13:00 | 31.95213 | 28.70955 | 30062 ft | 387 kts | 304° |
| 2026-04-29 13:01 | 31.97808 | 28.66661 | 30061 ft | 387 kts | 304° |
| 2026-04-29 13:01 | 32.00928 | 28.61494 | 30059 ft | 387 kts | 304° |
| 2026-04-29 13:02 | 32.04047 | 28.56322 | 30059 ft | 387 kts | 304° |
| 2026-04-29 13:02 | 32.07165 | 28.51143 | 30062 ft | 387 kts | 304° |
| 2026-04-29 13:03 | 32.10282 | 28.45960 | 30063 ft | 388 kts | 304° |
| 2026-04-29 13:03 | 32.13388 | 28.40787 | 30061 ft | 389 kts | 304° |
| 2026-04-29 13:04 | 32.16517 | 28.35570 | 30058 ft | 389 kts | 303° |
| 2026-04-29 13:04 | 32.19643 | 28.30351 | 30059 ft | 389 kts | 303° |
| 2026-04-29 13:05 | 32.22760 | 28.25138 | 30059 ft | 389 kts | 303° |
| 2026-04-29 13:05 | 32.25875 | 28.19922 | 30059 ft | 389 kts | 303° |
| 2026-04-29 13:06 | 32.28989 | 28.14701 | 30059 ft | 389 kts | 303° |
| 2026-04-29 13:06 | 32.32080 | 28.09511 | 30061 ft | 389 kts | 303° |
| 2026-04-29 13:07 | 32.35192 | 28.04279 | 30061 ft | 388 kts | 303° |
| 2026-04-29 13:07 | 32.38301 | 27.99044 | 30062 ft | 388 kts | 303° |
| 2026-04-29 13:08 | 32.41405 | 27.93811 | 30059 ft | 388 kts | 303° |
| 2026-04-29 13:08 | 32.44505 | 27.88576 | 30059 ft | 388 kts | 303° |
| 2026-04-29 13:09 | 32.47606 | 27.83333 | 30059 ft | 388 kts | 303° |
| 2026-04-29 13:09 | 32.50707 | 27.78084 | 30062 ft | 389 kts | 303° |
| 2026-04-29 13:10 | 32.53803 | 27.72835 | 30060 ft | 391 kts | 303° |
| 2026-04-29 13:10 | 32.56922 | 27.67538 | 30056 ft | 391 kts | 303° |
| 2026-04-29 13:11 | 32.60038 | 27.62242 | 30063 ft | 391 kts | 303° |
| 2026-04-29 13:11 | 32.63153 | 27.56938 | 30060 ft | 391 kts | 303° |
| 2026-04-29 13:12 | 32.66263 | 27.51636 | 30061 ft | 391 kts | 303° |
| 2026-04-29 13:12 | 32.69368 | 27.46335 | 30052 ft | 391 kts | 303° |
| 2026-04-29 13:13 | 32.72446 | 27.41069 | 30060 ft | 391 kts | 303° |
| 2026-04-29 13:13 | 32.75538 | 27.35761 | 30056 ft | 391 kts | 303° |
| 2026-04-29 13:14 | 32.78628 | 27.30447 | 30059 ft | 391 kts | 303° |
| 2026-04-29 13:14 | 32.81716 | 27.25131 | 30060 ft | 391 kts | 303° |
| 2026-04-29 13:15 | 32.84804 | 27.19808 | 30056 ft | 391 kts | 303° |
| 2026-04-29 13:15 | 32.87890 | 27.14481 | 30060 ft | 391 kts | 303° |
| 2026-04-29 13:16 | 32.90973 | 27.09152 | 30059 ft | 391 kts | 303° |
| 2026-04-29 13:16 | 32.94051 | 27.03822 | 30057 ft | 391 kts | 303° |
| 2026-04-29 13:17 | 32.97128 | 26.98489 | 30059 ft | 391 kts | 303° |
| 2026-04-29 13:17 | 33.00186 | 26.93186 | 30060 ft | 391 kts | 303° |
| 2026-04-29 13:18 | 33.03252 | 26.87838 | 30060 ft | 388 kts | 302° |
| 2026-04-29 13:18 | 33.06242 | 26.82617 | 30061 ft | 378 kts | 302° |
| 2026-04-29 13:19 | 33.09202 | 26.77441 | 30056 ft | 378 kts | 302° |
| 2026-04-29 13:19 | 33.12160 | 26.72263 | 30056 ft | 378 kts | 302° |
| 2026-04-29 13:20 | 33.15113 | 26.67087 | 30057 ft | 378 kts | 302° |
| 2026-04-29 13:20 | 33.18069 | 26.61902 | 30059 ft | 378 kts | 302° |
| 2026-04-29 13:21 | 33.21022 | 26.56713 | 30061 ft | 378 kts | 302° |
| 2026-04-29 13:21 | 33.23973 | 26.51520 | 30059 ft | 378 kts | 302° |
| 2026-04-29 13:22 | 33.26927 | 26.46314 | 30059 ft | 378 kts | 302° |
| 2026-04-29 13:22 | 33.29879 | 26.41106 | 30060 ft | 379 kts | 302° |
| 2026-04-29 13:23 | 33.32824 | 26.35901 | 30054 ft | 381 kts | 302° |
| 2026-04-29 13:23 | 33.35789 | 26.30655 | 30053 ft | 381 kts | 302° |
| 2026-04-29 13:24 | 33.38754 | 26.25400 | 30066 ft | 381 kts | 302° |
| 2026-04-29 13:24 | 33.41715 | 26.20147 | 30061 ft | 381 kts | 302° |
| 2026-04-29 13:25 | 33.44680 | 26.14877 | 30056 ft | 381 kts | 302° |
| 2026-04-29 13:25 | 33.49117 | 26.06977 | 30058 ft | 381 kts | 302° |
| 2026-04-29 13:26 | 33.52073 | 26.01705 | 30059 ft | 381 kts | 302° |
| 2026-04-29 13:26 | 33.55029 | 25.96424 | 30059 ft | 381 kts | 302° |
| 2026-04-29 13:27 | 33.57982 | 25.91143 | 30051 ft | 381 kts | 302° |
| 2026-04-29 13:27 | 33.60925 | 25.85872 | 30058 ft | 380 kts | 302° |
| 2026-04-29 13:28 | 33.63869 | 25.80591 | 30058 ft | 380 kts | 302° |
| 2026-04-29 13:28 | 33.66790 | 25.75342 | 30058 ft | 380 kts | 302° |
| 2026-04-29 13:29 | 33.69728 | 25.70057 | 30095 ft | 381 kts | 302° |
| 2026-04-29 13:29 | 33.72676 | 25.64742 | 30061 ft | 384 kts | 302° |
| 2026-04-29 13:30 | 33.75645 | 25.59387 | 30065 ft | 385 kts | 302° |
| 2026-04-29 13:30 | 33.78608 | 25.54034 | 30058 ft | 384 kts | 302° |
| 2026-04-29 13:31 | 33.81567 | 25.48679 | 30060 ft | 384 kts | 302° |
| 2026-04-29 13:31 | 33.84525 | 25.43319 | 30063 ft | 385 kts | 302° |
| 2026-04-29 13:32 | 33.87481 | 25.37953 | 30060 ft | 385 kts | 302° |
| 2026-04-29 13:32 | 33.90435 | 25.32584 | 30063 ft | 385 kts | 302° |
| 2026-04-29 13:33 | 33.93371 | 25.27240 | 30058 ft | 386 kts | 302° |
| 2026-04-29 13:33 | 33.96328 | 25.21848 | 30060 ft | 386 kts | 301° |
| 2026-04-29 13:34 | 33.99243 | 25.16418 | 30055 ft | 385 kts | 298° |
| 2026-04-29 13:34 | 34.01416 | 25.10532 | 30061 ft | 384 kts | 291° |
| 2026-04-29 13:35 | 34.03274 | 25.04496 | 30061 ft | 384 kts | 290° |
| 2026-04-29 13:35 | 34.05074 | 24.98431 | 30060 ft | 384 kts | 290° |
| 2026-04-29 13:36 | 34.06874 | 24.92370 | 30062 ft | 384 kts | 290° |
| 2026-04-29 13:36 | 34.08680 | 24.86317 | 30060 ft | 384 kts | 290° |
| 2026-04-29 13:37 | 34.10489 | 24.80257 | 30061 ft | 384 kts | 290° |
| 2026-04-29 13:37 | 34.12287 | 24.74226 | 30059 ft | 384 kts | 290° |
| 2026-04-29 13:38 | 34.14090 | 24.68161 | 30058 ft | 384 kts | 290° |
| 2026-04-29 13:38 | 34.15892 | 24.62087 | 30059 ft | 384 kts | 290° |
| 2026-04-29 13:39 | 34.17688 | 24.56019 | 30062 ft | 384 kts | 290° |
| 2026-04-29 13:39 | 34.19484 | 24.49939 | 30077 ft | 384 kts | 290° |
| 2026-04-29 13:40 | 34.21286 | 24.43825 | 30061 ft | 388 kts | 290° |
| 2026-04-29 13:40 | 34.23095 | 24.37681 | 30063 ft | 388 kts | 290° |
| 2026-04-29 13:41 | 34.24904 | 24.31520 | 30064 ft | 389 kts | 290° |
| 2026-04-29 13:41 | 34.26711 | 24.25348 | 30067 ft | 389 kts | 290° |
| 2026-04-29 13:42 | 34.28515 | 24.19177 | 30062 ft | 389 kts | 289° |
| 2026-04-29 13:42 | 34.30304 | 24.13044 | 30057 ft | 389 kts | 289° |
| 2026-04-29 13:43 | 34.32103 | 24.06863 | 30060 ft | 389 kts | 289° |
| 2026-04-29 13:43 | 34.33899 | 24.00681 | 30063 ft | 389 kts | 289° |
| 2026-04-29 13:44 | 34.35691 | 23.94495 | 30065 ft | 389 kts | 289° |
| 2026-04-29 13:44 | 34.37479 | 23.88313 | 30067 ft | 389 kts | 289° |
| 2026-04-29 13:45 | 34.39265 | 23.82124 | 30065 ft | 389 kts | 289° |
| 2026-04-29 13:45 | 34.41036 | 23.75972 | 30067 ft | 389 kts | 289° |
| 2026-04-29 13:46 | 34.42818 | 23.69772 | 30059 ft | 390 kts | 289° |
| 2026-04-29 13:46 | 34.44600 | 23.63556 | 30060 ft | 391 kts | 289° |
| 2026-04-29 13:47 | 34.46379 | 23.57334 | 30066 ft | 391 kts | 289° |
| 2026-04-29 13:47 | 34.48158 | 23.51102 | 30063 ft | 391 kts | 289° |
| 2026-04-29 13:48 | 34.49934 | 23.44864 | 30062 ft | 391 kts | 289° |
| 2026-04-29 13:48 | 34.51706 | 23.38631 | 30063 ft | 391 kts | 289° |
| 2026-04-29 13:49 | 34.53476 | 23.32389 | 30064 ft | 391 kts | 289° |
| 2026-04-29 13:49 | 34.55242 | 23.26145 | 30060 ft | 391 kts | 289° |
| 2026-04-29 13:50 | 34.57007 | 23.19893 | 30064 ft | 391 kts | 289° |
| 2026-04-29 13:50 | 34.58753 | 23.13693 | 30065 ft | 391 kts | 289° |
| 2026-04-29 13:51 | 34.60510 | 23.07439 | 30060 ft | 391 kts | 289° |
| 2026-04-29 13:51 | 34.62228 | 23.01166 | 30062 ft | 392 kts | 285° |
| 2026-04-29 13:52 | 34.63305 | 22.94681 | 30064 ft | 392 kts | 281° |
| 2026-04-29 13:52 | 34.64041 | 22.89258 | 30065 ft | 392 kts | 280° |
| 2026-04-29 13:53 | 34.64885 | 22.82716 | 30066 ft | 392 kts | 280° |
| 2026-04-29 13:53 | 34.65728 | 22.76177 | 30071 ft | 392 kts | 280° |
| 2026-04-29 13:54 | 34.66579 | 22.69613 | 30073 ft | 394 kts | 280° |
| 2026-04-29 13:54 | 34.67431 | 22.63045 | 30073 ft | 394 kts | 280° |
| 2026-04-29 13:55 | 34.68280 | 22.56468 | 30069 ft | 394 kts | 280° |
| 2026-04-29 13:55 | 34.69125 | 22.49898 | 30069 ft | 394 kts | 280° |
| 2026-04-29 13:56 | 34.69967 | 22.43320 | 30071 ft | 394 kts | 280° |
| 2026-04-29 13:56 | 34.70808 | 22.36725 | 30071 ft | 395 kts | 280° |
| 2026-04-29 13:57 | 34.71645 | 22.30119 | 30078 ft | 395 kts | 280° |
| 2026-04-29 13:57 | 34.72474 | 22.23558 | 30076 ft | 395 kts | 280° |
| 2026-04-29 13:58 | 34.73304 | 22.16954 | 30071 ft | 395 kts | 280° |
| 2026-04-29 13:58 | 34.74131 | 22.10353 | 30074 ft | 395 kts | 280° |
| 2026-04-29 13:59 | 34.74954 | 22.03742 | 30074 ft | 395 kts | 280° |
| 2026-04-29 13:59 | 34.75774 | 21.97130 | 30075 ft | 395 kts | 280° |
| 2026-04-29 14:00 | 34.76591 | 21.90514 | 30077 ft | 395 kts | 280° |
| 2026-04-29 14:00 | 34.77403 | 21.83905 | 30080 ft | 395 kts | 280° |
| 2026-04-29 14:01 | 34.78213 | 21.77289 | 30070 ft | 395 kts | 279° |
| 2026-04-29 14:01 | 34.79013 | 21.70718 | 30075 ft | 395 kts | 279° |
| 2026-04-29 14:02 | 34.79815 | 21.64105 | 30076 ft | 395 kts | 279° |
| 2026-04-29 14:02 | 34.80612 | 21.57496 | 30074 ft | 395 kts | 279° |
| 2026-04-29 14:03 | 34.81406 | 21.50881 | 30074 ft | 395 kts | 279° |
| 2026-04-29 14:03 | 34.82197 | 21.44269 | 30074 ft | 395 kts | 279° |
| 2026-04-29 14:04 | 34.82985 | 21.37649 | 30076 ft | 395 kts | 279° |
| 2026-04-29 14:04 | 34.83734 | 21.31027 | 30075 ft | 395 kts | 279° |
| 2026-04-29 14:05 | 34.84456 | 21.24394 | 30072 ft | 395 kts | 279° |
| 2026-04-29 14:05 | 34.85179 | 21.17764 | 30072 ft | 395 kts | 279° |
| 2026-04-29 14:06 | 34.85900 | 21.11182 | 30061 ft | 395 kts | 279° |
| 2026-04-29 14:06 | 34.86621 | 21.04588 | 30076 ft | 390 kts | 279° |
| 2026-04-29 14:07 | 34.87331 | 20.98045 | 30075 ft | 389 kts | 279° |
| 2026-04-29 14:07 | 34.88037 | 20.91517 | 30075 ft | 389 kts | 279° |
| 2026-04-29 14:08 | 34.88740 | 20.84977 | 30075 ft | 389 kts | 279° |
| 2026-04-29 14:08 | 34.89439 | 20.78445 | 30075 ft | 389 kts | 279° |
| 2026-04-29 14:09 | 34.90136 | 20.71901 | 30075 ft | 389 kts | 278° |
| 2026-04-29 14:09 | 34.90829 | 20.65354 | 30075 ft | 389 kts | 278° |
| 2026-04-29 14:10 | 34.91518 | 20.58806 | 30075 ft | 389 kts | 278° |
| 2026-04-29 14:10 | 34.92203 | 20.52265 | 30075 ft | 389 kts | 278° |
| 2026-04-29 14:11 | 34.92881 | 20.45761 | 30069 ft | 389 kts | 278° |
| 2026-04-29 14:11 | 34.93559 | 20.39219 | 30075 ft | 389 kts | 278° |
| 2026-04-29 14:12 | 34.94232 | 20.32687 | 30075 ft | 389 kts | 278° |
| 2026-04-29 14:12 | 34.94903 | 20.26147 | 30075 ft | 389 kts | 278° |
| 2026-04-29 14:13 | 34.95570 | 20.19609 | 30075 ft | 389 kts | 278° |
| 2026-04-29 14:13 | 34.96234 | 20.13070 | 30075 ft | 389 kts | 278° |
| 2026-04-29 14:14 | 34.96894 | 20.06528 | 30075 ft | 389 kts | 278° |
| 2026-04-29 14:14 | 34.97551 | 19.99975 | 30075 ft | 389 kts | 278° |
| 2026-04-29 14:15 | 34.98202 | 19.93454 | 30072 ft | 390 kts | 278° |
| 2026-04-29 14:15 | 34.98853 | 19.86895 | 30072 ft | 390 kts | 278° |
| 2026-04-29 14:16 | 34.99500 | 19.80338 | 30072 ft | 390 kts | 278° |
| 2026-04-29 14:16 | 35.00144 | 19.73772 | 30070 ft | 390 kts | 278° |
| 2026-04-29 14:17 | 35.00785 | 19.67200 | 30072 ft | 390 kts | 278° |
| 2026-04-29 14:17 | 35.01423 | 19.60626 | 30070 ft | 390 kts | 278° |
| 2026-04-29 14:18 | 35.02057 | 19.54051 | 30072 ft | 390 kts | 278° |
| 2026-04-29 14:18 | 35.02688 | 19.47474 | 30072 ft | 390 kts | 278° |
| 2026-04-29 14:19 | 35.03315 | 19.40898 | 30070 ft | 390 kts | 278° |
| 2026-04-29 14:19 | 35.03939 | 19.34315 | 30067 ft | 390 kts | 278° |
| 2026-04-29 14:20 | 35.04559 | 19.27733 | 30067 ft | 390 kts | 278° |
| 2026-04-29 14:20 | 35.05176 | 19.21151 | 30067 ft | 390 kts | 278° |
| 2026-04-29 14:21 | 35.05789 | 19.14572 | 30067 ft | 390 kts | 278° |
| 2026-04-29 14:21 | 35.06399 | 19.07991 | 30066 ft | 390 kts | 277° |
| 2026-04-29 14:22 | 35.07004 | 19.01414 | 30066 ft | 390 kts | 277° |
| 2026-04-29 14:22 | 35.07605 | 18.94836 | 30064 ft | 390 kts | 277° |
| 2026-04-29 14:23 | 35.08203 | 18.88260 | 30063 ft | 390 kts | 277° |
| 2026-04-29 14:23 | 35.08798 | 18.81684 | 30061 ft | 390 kts | 277° |
| 2026-04-29 14:24 | 35.09389 | 18.75103 | 30064 ft | 390 kts | 277° |
| 2026-04-29 14:24 | 35.09976 | 18.68521 | 30062 ft | 390 kts | 277° |
| 2026-04-29 14:25 | 35.10557 | 18.61980 | 30059 ft | 390 kts | 277° |
| 2026-04-29 14:25 | 35.11145 | 18.55397 | 30057 ft | 390 kts | 277° |
| 2026-04-29 14:26 | 35.11740 | 18.48818 | 30063 ft | 390 kts | 277° |
| 2026-04-29 14:26 | 35.12332 | 18.42231 | 30060 ft | 390 kts | 277° |
| 2026-04-29 14:27 | 35.12920 | 18.35641 | 30056 ft | 390 kts | 277° |
| 2026-04-29 14:28 | 35.13795 | 18.25754 | 30057 ft | 390 kts | 277° |
| 2026-04-29 14:28 | 35.14373 | 18.19166 | 30057 ft | 390 kts | 277° |
| 2026-04-29 14:29 | 35.14948 | 18.12575 | 30053 ft | 390 kts | 277° |
| 2026-04-29 14:29 | 35.15516 | 18.06021 | 30054 ft | 390 kts | 277° |
| 2026-04-29 14:30 | 35.16084 | 17.99425 | 30052 ft | 390 kts | 277° |
| 2026-04-29 14:30 | 35.16648 | 17.92828 | 30053 ft | 390 kts | 277° |
| 2026-04-29 14:31 | 35.17208 | 17.86236 | 30052 ft | 390 kts | 277° |
| 2026-04-29 14:31 | 35.17765 | 17.79642 | 30050 ft | 390 kts | 277° |
| 2026-04-29 14:32 | 35.18318 | 17.73050 | 30045 ft | 390 kts | 277° |
| 2026-04-29 14:32 | 35.18869 | 17.66446 | 30049 ft | 390 kts | 277° |
| 2026-04-29 14:33 | 35.19415 | 17.59846 | 30037 ft | 390 kts | 277° |
| 2026-04-29 14:33 | 35.19954 | 17.53293 | 30046 ft | 390 kts | 277° |
| 2026-04-29 14:34 | 35.20493 | 17.46701 | 30040 ft | 390 kts | 277° |
| 2026-04-29 14:34 | 35.21032 | 17.40104 | 30042 ft | 390 kts | 277° |
| 2026-04-29 14:35 | 35.21561 | 17.33499 | 30038 ft | 391 kts | 276° |
| 2026-04-29 14:35 | 35.22087 | 17.26879 | 30041 ft | 391 kts | 276° |
| 2026-04-29 14:36 | 35.22611 | 17.20260 | 30036 ft | 391 kts | 276° |
| 2026-04-29 14:36 | 35.23132 | 17.13637 | 30042 ft | 391 kts | 276° |
| 2026-04-29 14:37 | 35.23650 | 17.07017 | 30038 ft | 391 kts | 276° |
| 2026-04-29 14:37 | 35.24164 | 17.00394 | 30034 ft | 391 kts | 276° |
| 2026-04-29 14:38 | 35.24675 | 16.93771 | 30037 ft | 391 kts | 276° |
| 2026-04-29 14:38 | 35.25182 | 16.87144 | 30040 ft | 391 kts | 276° |
| 2026-04-29 14:39 | 35.25685 | 16.80515 | 30035 ft | 391 kts | 276° |
| 2026-04-29 14:39 | 35.26185 | 16.73892 | 30033 ft | 391 kts | 276° |
| 2026-04-29 14:40 | 35.26678 | 16.67308 | 30032 ft | 391 kts | 276° |
| 2026-04-29 14:40 | 35.27171 | 16.60676 | 30032 ft | 392 kts | 276° |
| 2026-04-29 14:41 | 35.27660 | 16.54034 | 30026 ft | 392 kts | 276° |
| 2026-04-29 14:41 | 35.28146 | 16.47393 | 30025 ft | 392 kts | 276° |
| 2026-04-29 14:42 | 35.28629 | 16.40753 | 30021 ft | 392 kts | 276° |
| 2026-04-29 14:42 | 35.29108 | 16.34104 | 30036 ft | 392 kts | 276° |
| 2026-04-29 14:43 | 35.29504 | 16.28575 | 30032 ft | 392 kts | 276° |
| 2026-04-29 14:43 | 35.29976 | 16.21930 | 30032 ft | 392 kts | 276° |
| 2026-04-29 14:44 | 35.30445 | 16.15277 | 30022 ft | 392 kts | 276° |
| 2026-04-29 14:44 | 35.30910 | 16.08630 | 30026 ft | 392 kts | 276° |
| 2026-04-29 14:45 | 35.31372 | 16.01975 | 30020 ft | 392 kts | 276° |
| 2026-04-29 14:45 | 35.31830 | 15.95321 | 30020 ft | 392 kts | 275° |
| 2026-04-29 14:46 | 35.32285 | 15.88659 | 30016 ft | 392 kts | 275° |
| 2026-04-29 14:46 | 35.32733 | 15.82046 | 30015 ft | 393 kts | 275° |
| 2026-04-29 14:47 | 35.33180 | 15.75384 | 30015 ft | 392 kts | 275° |
| 2026-04-29 14:47 | 35.33624 | 15.68720 | 30012 ft | 393 kts | 275° |
| 2026-04-29 14:48 | 35.34065 | 15.62055 | 30014 ft | 393 kts | 275° |
| 2026-04-29 14:48 | 35.34502 | 15.55386 | 30011 ft | 393 kts | 275° |
| 2026-04-29 14:49 | 35.34935 | 15.48719 | 30011 ft | 393 kts | 275° |
| 2026-04-29 14:49 | 35.35365 | 15.42038 | 30009 ft | 393 kts | 275° |
| 2026-04-29 14:50 | 35.35788 | 15.35407 | 30008 ft | 393 kts | 275° |
| 2026-04-29 14:50 | 35.36210 | 15.28740 | 30010 ft | 393 kts | 275° |
| 2026-04-29 14:51 | 35.36629 | 15.22061 | 30010 ft | 393 kts | 275° |
| 2026-04-29 14:51 | 35.37045 | 15.15378 | 30010 ft | 393 kts | 275° |
| 2026-04-29 14:52 | 35.37457 | 15.08691 | 30014 ft | 393 kts | 275° |
| 2026-04-29 14:52 | 35.37866 | 15.01996 | 30014 ft | 394 kts | 275° |
| 2026-04-29 14:53 | 35.38270 | 14.95312 | 30008 ft | 393 kts | 275° |
| 2026-04-29 14:53 | 35.38669 | 14.88664 | 30007 ft | 394 kts | 275° |
| 2026-04-29 14:54 | 35.39066 | 14.81969 | 30002 ft | 394 kts | 275° |
| 2026-04-29 14:54 | 35.39460 | 14.75272 | 30008 ft | 394 kts | 275° |
| 2026-04-29 14:55 | 35.39851 | 14.68574 | 30012 ft | 394 kts | 275° |
| 2026-04-29 14:55 | 35.40237 | 14.61874 | 30012 ft | 394 kts | 275° |
| 2026-04-29 14:56 | 35.40620 | 14.55176 | 30006 ft | 394 kts | 274° |
| 2026-04-29 14:56 | 35.41000 | 14.48475 | 30012 ft | 394 kts | 274° |
| 2026-04-29 14:57 | 35.41373 | 14.41771 | 30007 ft | 394 kts | 274° |
| 2026-04-29 14:57 | 35.41738 | 14.35115 | 30007 ft | 394 kts | 274° |
| 2026-04-29 14:58 | 35.42101 | 14.28420 | 30013 ft | 394 kts | 274° |
| 2026-04-29 14:58 | 35.42462 | 14.21715 | 30001 ft | 394 kts | 274° |
| 2026-04-29 14:59 | 35.42819 | 14.15017 | 30008 ft | 394 kts | 274° |
| 2026-04-29 14:59 | 35.43173 | 14.08319 | 30001 ft | 394 kts | 274° |
| 2026-04-29 15:00 | 35.43523 | 14.01618 | 29993 ft | 394 kts | 274° |
| 2026-04-29 15:00 | 35.43868 | 13.94918 | 30001 ft | 394 kts | 274° |
| 2026-04-29 15:01 | 35.44211 | 13.88218 | 29991 ft | 394 kts | 274° |
| 2026-04-29 15:01 | 35.44550 | 13.81501 | 29985 ft | 395 kts | 274° |
| 2026-04-29 15:02 | 35.44888 | 13.74755 | 29984 ft | 396 kts | 274° |
| 2026-04-29 15:02 | 35.45219 | 13.68054 | 29985 ft | 396 kts | 274° |
| 2026-04-29 15:03 | 35.45548 | 13.61311 | 29982 ft | 396 kts | 274° |
| 2026-04-29 15:03 | 35.45874 | 13.54566 | 29981 ft | 396 kts | 274° |
| 2026-04-29 15:04 | 35.46196 | 13.47815 | 29983 ft | 396 kts | 274° |
| 2026-04-29 15:04 | 35.46514 | 13.41088 | 29979 ft | 394 kts | 274° |
| 2026-04-29 15:05 | 35.46826 | 13.34373 | 29973 ft | 394 kts | 274° |
| 2026-04-29 15:05 | 35.47136 | 13.27658 | 29974 ft | 394 kts | 274° |
| 2026-04-29 15:06 | 35.47443 | 13.20935 | 29975 ft | 394 kts | 274° |
| 2026-04-29 15:06 | 35.47750 | 13.14218 | 29971 ft | 394 kts | 274° |
| 2026-04-29 15:07 | 35.48049 | 13.07507 | 29972 ft | 393 kts | 273° |
| 2026-04-29 15:07 | 35.48358 | 13.00817 | 29972 ft | 393 kts | 273° |
| 2026-04-29 15:08 | 35.48665 | 12.94125 | 29971 ft | 393 kts | 273° |
| 2026-04-29 15:08 | 35.48968 | 12.87434 | 29967 ft | 393 kts | 273° |
| 2026-04-29 15:09 | 35.49265 | 12.80783 | 29965 ft | 393 kts | 273° |
| 2026-04-29 15:09 | 35.49561 | 12.74091 | 29965 ft | 393 kts | 273° |
| 2026-04-29 15:10 | 35.49853 | 12.67383 | 29965 ft | 394 kts | 273° |
| 2026-04-29 15:10 | 35.50409 | 12.60703 | 29966 ft | 394 kts | 278° |
| 2026-04-29 15:11 | 35.51310 | 12.54060 | 29964 ft | 395 kts | 279° |
| 2026-04-29 15:11 | 35.52264 | 12.47419 | 29966 ft | 395 kts | 279° |
| 2026-04-29 15:12 | 35.53219 | 12.40780 | 29967 ft | 395 kts | 279° |
| 2026-04-29 15:12 | 35.54164 | 12.34137 | 29963 ft | 395 kts | 278° |
| 2026-04-29 15:13 | 35.55101 | 12.27491 | 29960 ft | 395 kts | 278° |
| 2026-04-29 15:13 | 35.56033 | 12.20839 | 29959 ft | 395 kts | 278° |
| 2026-04-29 15:14 | 35.56962 | 12.14187 | 29958 ft | 395 kts | 278° |
| 2026-04-29 15:14 | 35.57882 | 12.07575 | 29959 ft | 395 kts | 278° |
| 2026-04-29 15:15 | 35.58805 | 12.00918 | 29965 ft | 396 kts | 278° |
| 2026-04-29 15:15 | 35.59727 | 11.94232 | 29965 ft | 397 kts | 278° |
| 2026-04-29 15:16 | 35.60645 | 11.87546 | 29961 ft | 397 kts | 278° |
| 2026-04-29 15:16 | 35.61560 | 11.80861 | 29948 ft | 397 kts | 277° |
| 2026-04-29 15:17 | 35.62472 | 11.74165 | 29960 ft | 397 kts | 277° |
| 2026-04-29 15:17 | 35.63375 | 11.67510 | 29961 ft | 397 kts | 277° |
| 2026-04-29 15:18 | 35.64281 | 11.60797 | 29949 ft | 399 kts | 277° |
| 2026-04-29 15:18 | 35.65188 | 11.54054 | 29987 ft | 399 kts | 277° |
| 2026-04-29 15:18 | 35.65642 | 11.50667 | 30094 ft | 404 kts | 277° |
| 2026-04-29 15:19 | 35.66098 | 11.47234 | 30249 ft | 409 kts | 277° |
| 2026-04-29 15:19 | 35.66559 | 11.43767 | 30494 ft | 412 kts | 277° |
| 2026-04-29 15:19 | 35.67024 | 11.40287 | 30760 ft | 414 kts | 277° |
| 2026-04-29 15:19 | 35.67491 | 11.36785 | 31032 ft | 415 kts | 277° |
| 2026-04-29 15:20 | 35.67958 | 11.33277 | 31300 ft | 417 kts | 277° |
| 2026-04-29 15:20 | 35.68422 | 11.29787 | 31558 ft | 419 kts | 277° |
| 2026-04-29 15:20 | 35.68890 | 11.26250 | 31863 ft | 419 kts | 277° |
| 2026-04-29 15:20 | 35.69357 | 11.22719 | 32262 ft | 417 kts | 277° |
| 2026-04-29 15:21 | 35.69820 | 11.19201 | 32652 ft | 415 kts | 277° |
| 2026-04-29 15:21 | 35.70280 | 11.15698 | 33047 ft | 414 kts | 277° |
| 2026-04-29 15:21 | 35.70737 | 11.12204 | 33425 ft | 412 kts | 277° |
| 2026-04-29 15:21 | 35.71191 | 11.08722 | 33770 ft | 411 kts | 277° |
| 2026-04-29 15:22 | 35.71642 | 11.05253 | 34103 ft | 410 kts | 277° |
| 2026-04-29 15:22 | 35.72091 | 11.01793 | 34378 ft | 410 kts | 277° |
| 2026-04-29 15:22 | 35.72539 | 10.98327 | 34649 ft | 409 kts | 277° |
| 2026-04-29 15:22 | 35.72985 | 10.94872 | 34918 ft | 409 kts | 277° |
| 2026-04-29 15:23 | 35.73430 | 10.91416 | 35184 ft | 408 kts | 277° |
| 2026-04-29 15:23 | 35.73873 | 10.87966 | 35448 ft | 408 kts | 277° |
| 2026-04-29 15:23 | 35.74315 | 10.84518 | 35709 ft | 407 kts | 277° |
| 2026-04-29 15:23 | 35.74778 | 10.81075 | 35950 ft | 408 kts | 279° |
| 2026-04-29 15:24 | 35.75475 | 10.77732 | 36193 ft | 410 kts | 285° |
| 2026-04-29 15:24 | 35.76529 | 10.74462 | 36445 ft | 413 kts | 292° |
| 2026-04-29 15:24 | 35.77959 | 10.71388 | 36755 ft | 416 kts | 300° |
| 2026-04-29 15:24 | 35.79673 | 10.68517 | 37054 ft | 416 kts | 303° |
| 2026-04-29 15:25 | 35.81469 | 10.65710 | 37290 ft | 417 kts | 304° |
| 2026-04-29 15:25 | 35.83297 | 10.62942 | 37520 ft | 417 kts | 304° |
| 2026-04-29 15:25 | 35.85138 | 10.60183 | 37753 ft | 416 kts | 304° |
| 2026-04-29 15:25 | 35.86979 | 10.57424 | 37945 ft | 417 kts | 304° |
| 2026-04-29 15:26 | 35.88821 | 10.54648 | 37963 ft | 418 kts | 304° |
| 2026-04-29 15:26 | 35.92470 | 10.49110 | 37964 ft | 414 kts | 304° |
| 2026-04-29 15:27 | 35.96087 | 10.43583 | 37966 ft | 414 kts | 303° |
| 2026-04-29 15:27 | 35.99699 | 10.38047 | 37968 ft | 414 kts | 303° |
| 2026-04-29 15:28 | 36.03310 | 10.32505 | 37967 ft | 414 kts | 303° |
| 2026-04-29 15:28 | 36.06892 | 10.27003 | 37976 ft | 414 kts | 303° |
| 2026-04-29 15:29 | 36.10496 | 10.21459 | 37956 ft | 413 kts | 303° |
| 2026-04-29 15:30 | 36.15834 | 10.09293 | 37956 ft | 398 kts | 279° |
| 2026-04-29 15:30 | 36.16813 | 10.02567 | 37959 ft | 397 kts | 277° |
| 2026-04-29 15:31 | 36.17614 | 9.95818 | 37954 ft | 396 kts | 276° |
| 2026-04-29 15:31 | 36.18404 | 9.89063 | 37952 ft | 397 kts | 276° |
| 2026-04-29 15:32 | 36.19213 | 9.82303 | 37958 ft | 397 kts | 276° |
| 2026-04-29 15:32 | 36.20027 | 9.75570 | 37947 ft | 394 kts | 276° |
| 2026-04-29 15:33 | 36.20835 | 9.68865 | 37949 ft | 394 kts | 276° |
| 2026-04-29 15:33 | 36.21640 | 9.62148 | 37943 ft | 394 kts | 276° |
| 2026-04-29 15:34 | 36.22439 | 9.55437 | 37944 ft | 394 kts | 276° |
| 2026-04-29 15:34 | 36.23229 | 9.48770 | 37942 ft | 394 kts | 276° |
| 2026-04-29 15:35 | 36.24021 | 9.42059 | 37944 ft | 394 kts | 276° |
| 2026-04-29 15:35 | 36.24810 | 9.35336 | 37942 ft | 394 kts | 276° |
| 2026-04-29 15:36 | 36.25482 | 9.29755 | 37941 ft | 394 kts | 277° |
| 2026-04-29 15:36 | 36.26561 | 9.23082 | 37938 ft | 395 kts | 279° |
| 2026-04-29 15:37 | 36.27728 | 9.16424 | 37940 ft | 395 kts | 279° |
| 2026-04-29 15:37 | 36.28858 | 9.09754 | 37941 ft | 396 kts | 278° |
| 2026-04-29 15:38 | 36.29956 | 9.03053 | 37939 ft | 399 kts | 278° |
| 2026-04-29 15:38 | 36.31050 | 8.96299 | 37938 ft | 400 kts | 278° |
| 2026-04-29 15:39 | 36.32144 | 8.89529 | 37929 ft | 400 kts | 278° |
| 2026-04-29 15:39 | 36.33235 | 8.82764 | 37927 ft | 400 kts | 278° |
| 2026-04-29 15:40 | 36.34321 | 8.75996 | 37926 ft | 400 kts | 278° |
| 2026-04-29 15:40 | 36.35405 | 8.69216 | 37930 ft | 401 kts | 278° |
| 2026-04-29 15:41 | 36.36490 | 8.62412 | 37930 ft | 403 kts | 277° |
| 2026-04-29 15:41 | 36.37573 | 8.55589 | 37930 ft | 403 kts | 278° |
| 2026-04-29 15:42 | 36.38647 | 8.48812 | 37925 ft | 403 kts | 277° |
| 2026-04-29 15:42 | 36.39723 | 8.41981 | 37940 ft | 403 kts | 277° |
| 2026-04-29 15:43 | 36.40558 | 8.35127 | 37937 ft | 400 kts | 271° |
| 2026-04-29 15:43 | 36.40895 | 8.28221 | 37941 ft | 402 kts | 270° |
| 2026-04-29 15:44 | 36.41145 | 8.21260 | 37938 ft | 404 kts | 270° |
| 2026-04-29 15:44 | 36.41382 | 8.14308 | 37944 ft | 403 kts | 270° |
| 2026-04-29 15:45 | 36.41622 | 8.07391 | 37941 ft | 402 kts | 270° |
| 2026-04-29 15:45 | 36.41864 | 8.00450 | 37938 ft | 403 kts | 270° |
| 2026-04-29 15:46 | 36.42105 | 7.93480 | 37943 ft | 404 kts | 270° |
| 2026-04-29 15:46 | 36.42341 | 7.86494 | 37940 ft | 405 kts | 270° |
| 2026-04-29 15:47 | 36.42572 | 7.79515 | 37943 ft | 405 kts | 270° |
| 2026-04-29 15:47 | 36.42801 | 7.72532 | 37945 ft | 405 kts | 270° |
| 2026-04-29 15:48 | 36.43024 | 7.65545 | 37944 ft | 405 kts | 270° |
| 2026-04-29 15:48 | 36.43244 | 7.58561 | 37964 ft | 405 kts | 269° |
| 2026-04-29 15:49 | 36.43460 | 7.51570 | 37953 ft | 406 kts | 269° |
| 2026-04-29 15:49 | 36.43671 | 7.44608 | 37952 ft | 406 kts | 269° |
| 2026-04-29 15:50 | 36.43879 | 7.37599 | 37952 ft | 406 kts | 269° |
| 2026-04-29 15:50 | 36.44084 | 7.30581 | 37951 ft | 406 kts | 269° |
| 2026-04-29 15:51 | 36.44284 | 7.23573 | 37961 ft | 406 kts | 269° |
| 2026-04-29 15:51 | 36.44480 | 7.16550 | 37965 ft | 407 kts | 269° |
| 2026-04-29 15:52 | 36.44672 | 7.09535 | 37967 ft | 406 kts | 269° |
| 2026-04-29 15:52 | 36.44860 | 7.02527 | 37967 ft | 406 kts | 269° |
| 2026-04-29 15:53 | 36.45044 | 6.95518 | 37980 ft | 406 kts | 269° |
| 2026-04-29 15:53 | 36.45223 | 6.88501 | 37992 ft | 406 kts | 269° |
| 2026-04-29 15:54 | 36.45399 | 6.81479 | 38017 ft | 407 kts | 269° |
| 2026-04-29 15:54 | 36.45570 | 6.74391 | 38019 ft | 413 kts | 269° |
| 2026-04-29 15:55 | 36.45740 | 6.67299 | 38025 ft | 414 kts | 269° |
| 2026-04-29 15:55 | 36.45908 | 6.60157 | 38027 ft | 413 kts | 269° |
| 2026-04-29 15:56 | 36.46069 | 6.53015 | 37982 ft | 413 kts | 269° |
| 2026-04-29 15:56 | 36.46227 | 6.45880 | 37987 ft | 413 kts | 269° |
| 2026-04-29 15:57 | 36.46381 | 6.38732 | 37987 ft | 415 kts | 269° |
| 2026-04-29 15:57 | 36.46530 | 6.31570 | 37985 ft | 415 kts | 269° |
| 2026-04-29 15:58 | 36.46675 | 6.24395 | 37987 ft | 415 kts | 269° |
| 2026-04-29 15:58 | 36.46815 | 6.17283 | 37990 ft | 415 kts | 269° |
| 2026-04-29 15:59 | 36.46952 | 6.10114 | 37992 ft | 415 kts | 269° |
| 2026-04-29 15:59 | 36.47084 | 6.02948 | 37998 ft | 414 kts | 269° |
| 2026-04-29 16:00 | 36.47212 | 5.95799 | 37996 ft | 414 kts | 269° |
| 2026-04-29 16:00 | 36.47335 | 5.88655 | 38005 ft | 414 kts | 269° |
| 2026-04-29 16:01 | 36.47459 | 5.81514 | 38006 ft | 413 kts | 269° |
| 2026-04-29 16:01 | 36.47573 | 5.74368 | 38003 ft | 414 kts | 269° |
| 2026-04-29 16:02 | 36.47679 | 5.67216 | 38002 ft | 415 kts | 269° |
| 2026-04-29 16:02 | 36.47782 | 5.60039 | 38001 ft | 416 kts | 269° |
| 2026-04-29 16:03 | 36.47883 | 5.52844 | 38002 ft | 417 kts | 269° |
| 2026-04-29 16:03 | 36.47981 | 5.45645 | 37994 ft | 417 kts | 269° |
| 2026-04-29 16:04 | 36.48073 | 5.38494 | 37992 ft | 416 kts | 269° |
| 2026-04-29 16:04 | 36.48162 | 5.31295 | 37991 ft | 417 kts | 270° |
| 2026-04-29 16:05 | 36.48247 | 5.24081 | 37987 ft | 417 kts | 270° |
| 2026-04-29 16:05 | 36.48327 | 5.16871 | 37980 ft | 417 kts | 270° |
| 2026-04-29 16:06 | 36.48404 | 5.09659 | 37975 ft | 417 kts | 270° |
| 2026-04-29 16:06 | 36.48473 | 5.02448 | 37969 ft | 417 kts | 270° |
| 2026-04-29 16:07 | 36.48067 | 4.95269 | 37982 ft | 416 kts | 264° |
| 2026-04-29 16:07 | 36.47444 | 4.88137 | 37963 ft | 414 kts | 264° |
| 2026-04-29 16:08 | 36.46786 | 4.81080 | 37951 ft | 414 kts | 263° |
| 2026-04-29 16:08 | 36.46121 | 4.73977 | 37957 ft | 414 kts | 264° |
| 2026-04-29 16:09 | 36.45459 | 4.66872 | 37941 ft | 414 kts | 264° |
| 2026-04-29 16:09 | 36.44795 | 4.59755 | 37942 ft | 414 kts | 263° |
| 2026-04-29 16:10 | 36.44127 | 4.52638 | 37939 ft | 416 kts | 264° |
| 2026-04-29 16:10 | 36.43452 | 4.45496 | 37939 ft | 416 kts | 264° |
| 2026-04-29 16:11 | 36.42775 | 4.38387 | 37932 ft | 417 kts | 264° |
| 2026-04-29 16:11 | 36.42091 | 4.31239 | 37924 ft | 416 kts | 264° |
| 2026-04-29 16:12 | 36.41407 | 4.24150 | 37932 ft | 412 kts | 264° |
| 2026-04-29 16:12 | 36.40723 | 4.17100 | 37926 ft | 411 kts | 264° |
| 2026-04-29 16:13 | 36.40035 | 4.10058 | 37927 ft | 411 kts | 264° |
| 2026-04-29 16:13 | 36.39343 | 4.03014 | 37927 ft | 411 kts | 264° |
| 2026-04-29 16:14 | 36.38647 | 3.95966 | 37926 ft | 412 kts | 264° |
| 2026-04-29 16:14 | 36.37946 | 3.88910 | 37925 ft | 412 kts | 264° |
| 2026-04-29 16:15 | 36.37241 | 3.81860 | 37925 ft | 412 kts | 264° |
| 2026-04-29 16:15 | 36.36533 | 3.74818 | 37921 ft | 411 kts | 264° |
| 2026-04-29 16:16 | 36.35827 | 3.67834 | 37922 ft | 410 kts | 264° |
| 2026-04-29 16:16 | 36.35112 | 3.60814 | 37923 ft | 410 kts | 264° |
| 2026-04-29 16:17 | 36.34393 | 3.53794 | 37919 ft | 410 kts | 264° |
| 2026-04-29 16:17 | 36.33670 | 3.46776 | 37917 ft | 410 kts | 264° |
| 2026-04-29 16:18 | 36.32942 | 3.39750 | 37919 ft | 410 kts | 263° |
| 2026-04-29 16:18 | 36.32211 | 3.32731 | 37917 ft | 410 kts | 263° |
| 2026-04-29 16:19 | 36.31477 | 3.25719 | 37918 ft | 410 kts | 263° |
| 2026-04-29 16:19 | 36.30744 | 3.18755 | 37905 ft | 410 kts | 263° |
| 2026-04-29 16:20 | 36.30002 | 3.11743 | 37912 ft | 410 kts | 263° |
| 2026-04-29 16:20 | 36.29255 | 3.04730 | 37904 ft | 410 kts | 263° |
| 2026-04-29 16:21 | 36.28503 | 2.97717 | 37921 ft | 411 kts | 263° |
| 2026-04-29 16:21 | 36.27745 | 2.90688 | 37912 ft | 412 kts | 263° |
| 2026-04-29 16:22 | 36.26982 | 2.83657 | 37910 ft | 411 kts | 263° |
| 2026-04-29 16:22 | 36.26216 | 2.76633 | 37911 ft | 411 kts | 263° |
| 2026-04-29 16:23 | 36.25445 | 2.69605 | 37913 ft | 411 kts | 263° |
| 2026-04-29 16:23 | 36.24671 | 2.62585 | 37911 ft | 411 kts | 263° |
| 2026-04-29 16:24 | 36.23893 | 2.55572 | 37923 ft | 411 kts | 263° |
| 2026-04-29 16:24 | 36.23107 | 2.48556 | 37914 ft | 411 kts | 263° |
| 2026-04-29 16:25 | 36.22323 | 2.41595 | 37901 ft | 411 kts | 263° |
| 2026-04-29 16:25 | 36.21534 | 2.34605 | 37911 ft | 409 kts | 263° |
| 2026-04-29 16:26 | 36.20870 | 2.28763 | 37918 ft | 408 kts | 263° |
| 2026-04-29 16:26 | 36.20082 | 2.21856 | 37912 ft | 407 kts | 263° |
| 2026-04-29 16:27 | 36.19289 | 2.14934 | 37911 ft | 406 kts | 263° |
| 2026-04-29 16:27 | 36.18491 | 2.08010 | 37908 ft | 406 kts | 263° |
| 2026-04-29 16:28 | 36.17690 | 2.01094 | 37908 ft | 406 kts | 263° |
| 2026-04-29 16:28 | 36.16884 | 1.94170 | 37909 ft | 406 kts | 263° |
| 2026-04-29 16:29 | 36.16080 | 1.87259 | 37909 ft | 405 kts | 263° |
| 2026-04-29 16:29 | 36.15272 | 1.80370 | 37908 ft | 403 kts | 263° |
| 2026-04-29 16:30 | 36.14461 | 1.73496 | 37911 ft | 403 kts | 263° |
| 2026-04-29 16:30 | 36.13645 | 1.66625 | 37916 ft | 404 kts | 263° |
| 2026-04-29 16:31 | 36.12185 | 1.59950 | 37927 ft | 406 kts | 252° |
| 2026-04-29 16:31 | 36.10057 | 1.53465 | 37925 ft | 407 kts | 250° |
| 2026-04-29 16:32 | 36.07793 | 1.47046 | 37928 ft | 407 kts | 249° |
| 2026-04-29 16:32 | 36.05508 | 1.40633 | 37929 ft | 407 kts | 249° |
| 2026-04-29 16:33 | 36.02098 | 1.31010 | 37924 ft | 407 kts | 250° |
| 2026-04-29 16:33 | 35.99828 | 1.24597 | 37918 ft | 407 kts | 250° |
| 2026-04-29 16:34 | 35.97555 | 1.18185 | 37914 ft | 407 kts | 250° |
| 2026-04-29 16:34 | 35.95278 | 1.11779 | 37907 ft | 407 kts | 249° |
| 2026-04-29 16:35 | 35.93012 | 1.05416 | 37905 ft | 407 kts | 249° |
| 2026-04-29 16:35 | 35.90727 | 0.99015 | 37902 ft | 407 kts | 249° |
| 2026-04-29 16:36 | 35.88442 | 0.92622 | 37901 ft | 407 kts | 249° |
| 2026-04-29 16:36 | 35.86150 | 0.86224 | 37906 ft | 407 kts | 249° |
| 2026-04-29 16:37 | 35.83869 | 0.79875 | 37903 ft | 407 kts | 249° |
| 2026-04-29 16:37 | 35.81947 | 0.74534 | 37909 ft | 407 kts | 249° |
| 2026-04-29 16:38 | 35.79278 | 0.67135 | 37906 ft | 405 kts | 249° |
| 2026-04-29 16:38 | 35.76986 | 0.60794 | 37909 ft | 405 kts | 249° |
| 2026-04-29 16:39 | 35.74690 | 0.54456 | 37898 ft | 405 kts | 249° |
| 2026-04-29 16:39 | 35.72389 | 0.48115 | 37908 ft | 405 kts | 249° |
| 2026-04-29 16:40 | 35.70085 | 0.41780 | 37911 ft | 405 kts | 249° |
| 2026-04-29 16:40 | 35.67796 | 0.35493 | 37911 ft | 405 kts | 249° |
| 2026-04-29 16:41 | 35.65490 | 0.29179 | 37917 ft | 405 kts | 249° |
| 2026-04-29 16:41 | 35.63181 | 0.22865 | 37918 ft | 405 kts | 249° |
| 2026-04-29 16:42 | 35.60869 | 0.16557 | 37913 ft | 405 kts | 249° |
| 2026-04-29 16:42 | 35.58554 | 0.10254 | 37923 ft | 405 kts | 249° |
| 2026-04-29 16:43 | 35.56236 | 0.03951 | 37920 ft | 405 kts | 249° |
| 2026-04-29 16:43 | 35.53914 | -0.02344 | 37924 ft | 405 kts | 248° |
| 2026-04-29 16:44 | 35.51583 | -0.08649 | 37918 ft | 406 kts | 248° |
| 2026-04-29 16:44 | 35.49253 | -0.14949 | 37914 ft | 406 kts | 248° |
| 2026-04-29 16:45 | 35.46917 | -0.21247 | 37920 ft | 406 kts | 248° |
| 2026-04-29 16:45 | 35.44577 | -0.27543 | 37917 ft | 406 kts | 248° |
| 2026-04-29 16:46 | 35.42235 | -0.33833 | 37913 ft | 405 kts | 248° |
| 2026-04-29 16:46 | 35.39888 | -0.40122 | 37914 ft | 406 kts | 248° |
| 2026-04-29 16:47 | 35.37540 | -0.46405 | 37918 ft | 406 kts | 248° |
| 2026-04-29 16:47 | 35.35187 | -0.52686 | 37915 ft | 406 kts | 247° |
| 2026-04-29 16:48 | 35.32829 | -0.58969 | 37917 ft | 406 kts | 248° |
| 2026-04-29 16:48 | 35.30470 | -0.65241 | 37916 ft | 406 kts | 247° |
| 2026-04-29 16:49 | 35.28122 | -0.71474 | 37920 ft | 406 kts | 247° |
| 2026-04-29 16:49 | 35.25757 | -0.77740 | 37926 ft | 406 kts | 247° |
| 2026-04-29 16:50 | 35.23385 | -0.84011 | 37921 ft | 406 kts | 247° |
| 2026-04-29 16:50 | 35.21009 | -0.90279 | 37925 ft | 406 kts | 247° |
| 2026-04-29 16:51 | 35.18627 | -0.96553 | 37928 ft | 406 kts | 247° |
| 2026-04-29 16:51 | 35.16244 | -1.02821 | 37927 ft | 406 kts | 247° |
| 2026-04-29 16:52 | 35.13858 | -1.09080 | 37935 ft | 406 kts | 247° |
| 2026-04-29 16:52 | 35.11483 | -1.15300 | 37946 ft | 406 kts | 246° |
| 2026-04-29 16:53 | 35.09091 | -1.21549 | 37939 ft | 406 kts | 246° |
| 2026-04-29 16:53 | 35.06694 | -1.27801 | 37938 ft | 406 kts | 246° |
| 2026-04-29 16:54 | 35.04292 | -1.34054 | 37940 ft | 406 kts | 246° |
| 2026-04-29 16:54 | 35.01888 | -1.40295 | 37939 ft | 406 kts | 246° |
| 2026-04-29 16:55 | 34.99484 | -1.46528 | 37939 ft | 406 kts | 246° |
| 2026-04-29 16:55 | 34.97092 | -1.52718 | 37943 ft | 406 kts | 246° |
| 2026-04-29 16:56 | 34.94673 | -1.58966 | 37954 ft | 407 kts | 246° |
| 2026-04-29 16:56 | 34.92251 | -1.65213 | 37933 ft | 407 kts | 246° |
| 2026-04-29 16:57 | 34.89823 | -1.71460 | 37933 ft | 407 kts | 246° |
| 2026-04-29 16:57 | 34.87396 | -1.77693 | 37934 ft | 407 kts | 246° |
| 2026-04-29 16:58 | 34.84814 | -1.83778 | 37929 ft | 409 kts | 239° |
| 2026-04-29 16:58 | 34.81368 | -1.89312 | 37931 ft | 410 kts | 234° |
| 2026-04-29 16:59 | 34.77993 | -1.94890 | 37940 ft | 408 kts | 242° |
| 2026-04-29 16:59 | 34.75762 | -2.01205 | 37938 ft | 407 kts | 251° |
| 2026-04-29 17:00 | 34.73994 | -2.07754 | 37954 ft | 408 kts | 253° |
| 2026-04-29 17:00 | 34.72304 | -2.14336 | 37936 ft | 408 kts | 253° |
| 2026-04-29 17:01 | 34.70608 | -2.20909 | 37933 ft | 408 kts | 252° |
| 2026-04-29 17:01 | 34.68903 | -2.27481 | 38285 ft | 407 kts | 252° |
| 2026-04-29 17:02 | 34.68042 | -2.30761 | 38559 ft | 407 kts | 252° |
| 2026-04-29 17:02 | 34.67175 | -2.34041 | 38739 ft | 407 kts | 252° |
| 2026-04-29 17:02 | 34.66320 | -2.37266 | 38891 ft | 408 kts | 252° |
| 2026-04-29 17:02 | 34.65445 | -2.40559 | 38922 ft | 411 kts | 252° |
| 2026-04-29 17:03 | 34.63688 | -2.47157 | 38918 ft | 410 kts | 252° |
| 2026-04-29 17:03 | 34.61933 | -2.53740 | 38917 ft | 409 kts | 252° |
| 2026-04-29 17:04 | 34.60177 | -2.60308 | 38909 ft | 409 kts | 252° |
| 2026-04-29 17:04 | 34.58416 | -2.66882 | 38909 ft | 409 kts | 252° |
| 2026-04-29 17:05 | 34.56654 | -2.73446 | 38909 ft | 409 kts | 252° |
| 2026-04-29 17:05 | 34.54887 | -2.80012 | 38905 ft | 409 kts | 252° |
| 2026-04-29 17:06 | 34.53128 | -2.86532 | 38909 ft | 409 kts | 251° |
| 2026-04-29 17:06 | 34.51354 | -2.93092 | 38908 ft | 409 kts | 251° |
| 2026-04-29 17:07 | 34.49866 | -2.98585 | 38907 ft | 409 kts | 251° |
| 2026-04-29 17:07 | 34.47797 | -3.06201 | 38905 ft | 409 kts | 251° |
| 2026-04-29 17:08 | 34.46010 | -3.12763 | 38902 ft | 410 kts | 251° |
| 2026-04-29 17:08 | 34.44217 | -3.19329 | 38903 ft | 410 kts | 251° |
| 2026-04-29 17:09 | 34.42418 | -3.25899 | 38906 ft | 411 kts | 251° |
| 2026-04-29 17:09 | 34.40611 | -3.32483 | 38908 ft | 412 kts | 251° |
| 2026-04-29 17:10 | 34.38796 | -3.39078 | 38912 ft | 413 kts | 251° |
| 2026-04-29 17:10 | 34.36988 | -3.45632 | 38914 ft | 413 kts | 251° |
| 2026-04-29 17:11 | 34.35166 | -3.52226 | 38914 ft | 413 kts | 251° |
| 2026-04-29 17:11 | 34.33340 | -3.58817 | 38914 ft | 413 kts | 251° |
| 2026-04-29 17:12 | 34.31509 | -3.65410 | 38911 ft | 413 kts | 251° |
| 2026-04-29 17:12 | 34.30283 | -3.69816 | 38922 ft | 413 kts | 251° |
| 2026-04-29 17:13 | 34.27840 | -3.78578 | 38922 ft | 413 kts | 251° |
| 2026-04-29 17:13 | 34.26309 | -3.84052 | 38934 ft | 413 kts | 251° |
| 2026-04-29 17:14 | 34.24466 | -3.90634 | 38939 ft | 414 kts | 251° |
| 2026-04-29 17:14 | 34.22615 | -3.97222 | 38941 ft | 414 kts | 251° |
| 2026-04-29 17:15 | 34.20764 | -4.03800 | 38936 ft | 414 kts | 251° |
| 2026-04-29 17:15 | 34.18904 | -4.10392 | 38939 ft | 414 kts | 251° |
| 2026-04-29 17:16 | 34.17044 | -4.16968 | 38946 ft | 414 kts | 251° |
| 2026-04-29 17:16 | 34.15193 | -4.23500 | 38945 ft | 414 kts | 250° |
| 2026-04-29 17:17 | 34.13324 | -4.30077 | 38959 ft | 414 kts | 251° |
| 2026-04-29 17:17 | 34.11447 | -4.36663 | 38963 ft | 415 kts | 251° |
| 2026-04-29 17:18 | 34.09568 | -4.43251 | 38961 ft | 415 kts | 251° |
| 2026-04-29 17:18 | 34.07685 | -4.49833 | 38961 ft | 415 kts | 251° |
| 2026-04-29 17:19 | 34.05798 | -4.56411 | 38964 ft | 415 kts | 250° |
| 2026-04-29 17:19 | 34.03906 | -4.62996 | 38962 ft | 416 kts | 250° |
| 2026-04-29 17:20 | 34.02017 | -4.69552 | 38981 ft | 416 kts | 250° |
| 2026-04-29 17:20 | 34.00115 | -4.76138 | 38986 ft | 416 kts | 250° |
| 2026-04-29 17:21 | 33.98209 | -4.82727 | 38990 ft | 416 kts | 250° |
| 2026-04-29 17:21 | 33.96297 | -4.89316 | 38992 ft | 416 kts | 250° |
| 2026-04-29 17:22 | 33.94385 | -4.95895 | 38996 ft | 416 kts | 250° |
| 2026-04-29 17:22 | 33.92700 | -5.02571 | 38994 ft | 417 kts | 258° |
| 2026-04-29 17:23 | 33.91618 | -5.09449 | 38992 ft | 418 kts | 259° |
| 2026-04-29 17:23 | 33.90643 | -5.16360 | 38988 ft | 419 kts | 259° |
| 2026-04-29 17:24 | 33.89678 | -5.23274 | 38985 ft | 419 kts | 259° |
| 2026-04-29 17:24 | 33.88697 | -5.30191 | 38971 ft | 419 kts | 259° |
| 2026-04-29 17:25 | 33.87709 | -5.37070 | 38968 ft | 419 kts | 259° |
| 2026-04-29 17:25 | 33.86711 | -5.43974 | 38967 ft | 419 kts | 259° |
| 2026-04-29 17:26 | 33.85710 | -5.50873 | 38966 ft | 419 kts | 259° |
| 2026-04-29 17:26 | 33.84704 | -5.57789 | 38966 ft | 419 kts | 259° |
| 2026-04-29 17:27 | 33.83694 | -5.64699 | 38960 ft | 419 kts | 259° |
| 2026-04-29 17:27 | 33.83195 | -5.68113 | 38851 ft | 418 kts | 259° |
| 2026-04-29 17:27 | 33.82695 | -5.71518 | 38658 ft | 410 kts | 259° |
| 2026-04-29 17:28 | 33.82126 | -5.74839 | 38437 ft | 402 kts | 255° |
| 2026-04-29 17:28 | 33.81268 | -5.78048 | 37551 ft | 407 kts | 248° |
| 2026-04-29 17:28 | 33.80020 | -5.81160 | 36530 ft | 417 kts | 242° |
| 2026-04-29 17:28 | 33.78582 | -5.84223 | 35661 ft | 424 kts | 240° |
| 2026-04-29 17:29 | 33.77099 | -5.87310 | 34862 ft | 429 kts | 240° |
| 2026-04-29 17:29 | 33.75599 | -5.90424 | 34072 ft | 433 kts | 240° |
| 2026-04-29 17:29 | 33.74086 | -5.93566 | 33216 ft | 436 kts | 240° |
| 2026-04-29 17:29 | 33.73078 | -5.95659 | 32639 ft | 438 kts | 240° |
| 2026-04-29 17:30 | 33.71026 | -5.99917 | 31444 ft | 442 kts | 240° |
| 2026-04-29 17:30 | 33.69480 | -6.03125 | 30585 ft | 444 kts | 240° |
| 2026-04-29 17:30 | 33.67928 | -6.06340 | 29802 ft | 445 kts | 240° |
| 2026-04-29 17:30 | 33.66376 | -6.09552 | 28985 ft | 444 kts | 240° |
| 2026-04-29 17:31 | 33.64852 | -6.12705 | 28217 ft | 442 kts | 240° |
| 2026-04-29 17:31 | 33.63312 | -6.15886 | 27504 ft | 439 kts | 240° |
| 2026-04-29 17:31 | 33.61782 | -6.19045 | 26821 ft | 436 kts | 240° |
| 2026-04-29 17:31 | 33.60263 | -6.22179 | 26151 ft | 433 kts | 240° |
| 2026-04-29 17:32 | 33.58754 | -6.25289 | 25485 ft | 430 kts | 240° |
| 2026-04-29 17:32 | 33.57254 | -6.28379 | 24865 ft | 426 kts | 240° |
| 2026-04-29 17:32 | 33.55768 | -6.31438 | 24241 ft | 423 kts | 240° |
| 2026-04-29 17:32 | 33.54285 | -6.34486 | 23612 ft | 421 kts | 240° |
| 2026-04-29 17:33 | 33.52816 | -6.37505 | 22927 ft | 418 kts | 240° |
| 2026-04-29 17:33 | 33.51358 | -6.40497 | 22222 ft | 414 kts | 240° |
| 2026-04-29 17:33 | 33.49909 | -6.43468 | 21551 ft | 411 kts | 240° |
| 2026-04-29 17:33 | 33.48469 | -6.46419 | 20900 ft | 408 kts | 240° |
| 2026-04-29 17:34 | 33.47043 | -6.49340 | 20275 ft | 405 kts | 240° |
| 2026-04-29 17:34 | 33.45626 | -6.52239 | 19675 ft | 402 kts | 240° |
| 2026-04-29 17:34 | 33.44239 | -6.55076 | 19039 ft | 396 kts | 240° |
| 2026-04-29 17:34 | 33.42855 | -6.57904 | 18225 ft | 392 kts | 240° |
| 2026-04-29 17:35 | 33.40560 | -6.62587 | 17093 ft | 383 kts | 240° |
| 2026-04-29 17:35 | 33.38809 | -6.66157 | 16430 ft | 367 kts | 240° |
| 2026-04-29 17:35 | 33.37538 | -6.68750 | 15960 ft | 356 kts | 240° |
| 2026-04-29 17:36 | 33.36299 | -6.71271 | 15516 ft | 348 kts | 240° |
| 2026-04-29 17:36 | 33.35075 | -6.73764 | 15062 ft | 347 kts | 239° |
| 2026-04-29 17:36 | 33.33850 | -6.76252 | 14612 ft | 347 kts | 239° |
| 2026-04-29 17:36 | 33.32625 | -6.78741 | 14164 ft | 347 kts | 239° |
| 2026-04-29 17:37 | 33.31403 | -6.81222 | 13704 ft | 345 kts | 239° |
| 2026-04-29 17:37 | 33.30204 | -6.83655 | 13230 ft | 343 kts | 239° |
| 2026-04-29 17:37 | 33.28997 | -6.86099 | 12782 ft | 340 kts | 239° |
| 2026-04-29 17:37 | 33.27797 | -6.88532 | 12334 ft | 339 kts | 239° |
| 2026-04-29 17:38 | 33.26599 | -6.90956 | 11883 ft | 337 kts | 239° |
| 2026-04-29 17:38 | 33.25411 | -6.93358 | 11452 ft | 335 kts | 239° |
| 2026-04-29 17:38 | 33.24247 | -6.95713 | 11303 ft | 323 kts | 239° |
| 2026-04-29 17:38 | 33.23128 | -6.97972 | 11189 ft | 310 kts | 239° |
| 2026-04-29 17:39 | 33.22050 | -7.00150 | 11081 ft | 299 kts | 239° |
| 2026-04-29 17:39 | 33.21009 | -7.02249 | 10954 ft | 289 kts | 239° |
| 2026-04-29 17:39 | 33.19999 | -7.04284 | 10790 ft | 281 kts | 239° |
| 2026-04-29 17:39 | 33.19132 | -7.06343 | 10583 ft | 278 kts | 249° |
| 2026-04-29 17:40 | 33.18594 | -7.08567 | 10209 ft | 280 kts | 256° |
| 2026-04-29 17:40 | 33.18176 | -7.10837 | 9881 ft | 280 kts | 257° |
| 2026-04-29 17:40 | 33.17793 | -7.13081 | 9525 ft | 278 kts | 257° |
| 2026-04-29 17:40 | 33.17416 | -7.15346 | 9158 ft | 278 kts | 257° |
| 2026-04-29 17:41 | 33.17041 | -7.17616 | 8814 ft | 278 kts | 257° |
| 2026-04-29 17:41 | 33.16670 | -7.19875 | 8457 ft | 278 kts | 257° |
| 2026-04-29 17:41 | 33.16300 | -7.22128 | 8143 ft | 276 kts | 257° |
| 2026-04-29 17:41 | 33.15931 | -7.24370 | 7737 ft | 275 kts | 257° |
| 2026-04-29 17:42 | 33.15564 | -7.26608 | 7331 ft | 274 kts | 257° |
| 2026-04-29 17:42 | 33.15198 | -7.28834 | 6968 ft | 272 kts | 257° |
| 2026-04-29 17:42 | 33.14833 | -7.31050 | 6571 ft | 272 kts | 257° |
| 2026-04-29 17:42 | 33.14470 | -7.33260 | 6211 ft | 270 kts | 257° |
| 2026-04-29 17:43 | 33.14107 | -7.35455 | 5819 ft | 268 kts | 257° |
| 2026-04-29 17:43 | 33.13746 | -7.37634 | 5471 ft | 265 kts | 257° |
| 2026-04-29 17:43 | 33.13397 | -7.39744 | 5315 ft | 254 kts | 257° |
| 2026-04-29 17:43 | 33.13060 | -7.41778 | 5178 ft | 245 kts | 258° |
| 2026-04-29 17:44 | 33.12734 | -7.43743 | 5002 ft | 238 kts | 257° |
| 2026-04-29 17:44 | 33.12418 | -7.45641 | 4760 ft | 236 kts | 257° |
| 2026-04-29 17:44 | 33.12124 | -7.47593 | 4459 ft | 236 kts | 264° |
| 2026-04-29 17:44 | 33.12449 | -7.49458 | 4135 ft | 238 kts | 302° |
| 2026-04-29 17:45 | 33.13593 | -7.50847 | 3904 ft | 234 kts | 324° |
| 2026-04-29 17:45 | 33.15006 | -7.51747 | 3748 ft | 228 kts | 340° |
| 2026-04-29 17:45 | 33.16534 | -7.52292 | 3602 ft | 229 kts | 346° |
| 2026-04-29 17:45 | 33.18038 | -7.52778 | 3576 ft | 217 kts | 345° |
| 2026-04-29 17:46 | 33.19444 | -7.53252 | 3586 ft | 203 kts | 344° |
| 2026-04-29 17:46 | 33.20763 | -7.53712 | 3563 ft | 192 kts | 344° |
| 2026-04-29 17:46 | 33.22036 | -7.54170 | 3359 ft | 191 kts | 344° |
| 2026-04-29 17:46 | 33.23323 | -7.54616 | 3085 ft | 194 kts | 345° |
| 2026-04-29 17:47 | 33.24630 | -7.55056 | 2835 ft | 193 kts | 345° |
| 2026-04-29 17:47 | 33.25904 | -7.55493 | 2568 ft | 186 kts | 345° |
| 2026-04-29 17:47 | 33.27113 | -7.55908 | 2316 ft | 174 kts | 345° |
| 2026-04-29 17:47 | 33.28227 | -7.56290 | 2084 ft | 160 kts | 345° |
| 2026-04-29 17:48 | 33.29253 | -7.56642 | 1882 ft | 146 kts | 345° |
| 2026-04-29 17:48 | 33.30181 | -7.56961 | 1699 ft | 132 kts | 345° |
| 2026-04-29 17:48 | 33.31029 | -7.57251 | 1537 ft | 125 kts | 345° |
| 2026-04-29 17:48 | 33.31874 | -7.57537 | 1427 ft | 127 kts | 345° |
| 2026-04-29 17:49 | 33.32716 | -7.57838 | 1207 ft | 124 kts | 346° |
| 2026-04-29 17:49 | 33.33543 | -7.58132 | 1014 ft | 124 kts | 348° |
| 2026-04-29 17:49 | 33.34365 | -7.58406 | 837 ft | 121 kts | 345° |
| 2026-04-29 17:49 | 33.35162 | -7.58670 | 690 ft | 121 kts | 344° |
| 2026-04-29 17:50 | 33.35905 | -7.58920 | 655 ft | 91 kts | 343° |
| 2026-04-29 17:50 | 33.36357 | -7.59078 | 656 ft | 53 kts | 344° |
| 2026-04-29 17:50 | 33.36681 | -7.59190 | 658 ft | 44 kts | 344° |
| 2026-04-29 17:50 | 33.36962 | -7.59283 | 656 ft | 40 kts | 345° |
| 2026-04-29 17:51 | 33.37215 | -7.59372 | 657 ft | 36 kts | 344° |
| 2026-04-29 17:51 | 33.37444 | -7.59450 | 658 ft | 33 kts | 344° |
| 2026-04-29 17:51 | 33.37640 | -7.59519 | 657 ft | 15 kts | 343° |
| 2026-04-29 17:51 | 33.37722 | -7.59480 | 657 ft | 11 kts | 68° |
| 2026-04-29 17:52 | 33.37745 | -7.59386 | 658 ft | 12 kts | 74° |
| 2026-04-29 17:52 | 33.37758 | -7.59332 | 658 ft | 7 kts | 74° |
| 2026-04-29 17:52 | 33.37765 | -7.59303 | 657 ft | 5 kts | 74° |
| 2026-04-29 17:52 | 33.37783 | -7.59228 | 653 ft | 13 kts | 74° |
| 2026-04-29 17:53 | 33.37812 | -7.59106 | 649 ft | 16 kts | 75° |
| 2026-04-29 17:53 | 33.37839 | -7.58997 | 654 ft | 11 kts | 73° |
| 2026-04-29 17:53 | 33.37861 | -7.58909 | 657 ft | 12 kts | 73° |
| 2026-04-29 17:53 | 33.37885 | -7.58807 | 657 ft | 14 kts | 74° |
| 2026-04-29 17:54 | 33.37909 | -7.58686 | 657 ft | 16 kts | 86° |
| 2026-04-29 17:54 | 33.37853 | -7.58564 | 657 ft | 19 kts | 128° |
| 2026-04-29 17:54 | 33.37746 | -7.58464 | 657 ft | 21 kts | 160° |
| 2026-04-29 17:54 | 33.37607 | -7.58421 | 657 ft | 17 kts | 173° |
| 2026-04-29 17:55 | 33.37501 | -7.58404 | 657 ft | 9 kts | 165° |
| 2026-04-29 17:55 | 33.37438 | -7.58382 | 657 ft | 10 kts | 164° |
| 2026-04-29 17:55 | 33.37395 | -7.58365 | 657 ft | 0 kts | 155° |
| 2026-04-29 17:55 | 33.37387 | -7.58358 | 657 ft | 3 kts | 139° |
| 2026-04-29 17:56 | 33.37383 | -7.58329 | 657 ft | 6 kts | 87° |
| 2026-04-29 17:56 | 33.37391 | -7.58298 | 657 ft | 5 kts | 73° |
| 2026-04-29 17:56 | 33.37398 | -7.58268 | 657 ft | 0 kts | 74° |